<?xml version="1.0" encoding="UTF-8" standalone="no" ?>
<gpx xmlns="http://www.topografix.com/GPX/1/1" xmlns:xsi="http://www.w3.org/2001/XMLSchema-instance" xsi:schemaLocation="http://www.topografix.com/GPX/1/1 http://www.topografix.com/GPX/1/1/gpx.xsd" version="1.1" creator="VisuGPX - https://www.visugpx.com">
  <metadata>
    <name>Chemin Faisant au golf de Teynac 33750 Beychac-et-Caillau</name>
    <desc><![CDATA[Très belle randonnée.]]></desc>
  </metadata>
  <trk>
    <name><![CDATA[2015-12-13 12:48:24]]></name>
    <trkseg>
      <trkpt lat="44.85935" lon="-0.36714">
        <ele>71.76</ele>
        <time>2015-12-13T07:52:55Z</time>
      </trkpt>
      <trkpt lat="44.85935" lon="-0.36714">
        <ele>71.76</ele>
        <time>2015-12-13T07:52:56Z</time>
      </trkpt>
      <trkpt lat="44.85935" lon="-0.36716">
        <ele>72.24</ele>
        <time>2015-12-13T07:53:17Z</time>
      </trkpt>
      <trkpt lat="44.85933" lon="-0.36715">
        <ele>72.24</ele>
        <time>2015-12-13T07:53:31Z</time>
      </trkpt>
      <trkpt lat="44.85933" lon="-0.36715">
        <ele>71.27</ele>
        <time>2015-12-13T07:53:35Z</time>
      </trkpt>
      <trkpt lat="44.85933" lon="-0.36716">
        <ele>71.27</ele>
        <time>2015-12-13T07:53:53Z</time>
      </trkpt>
      <trkpt lat="44.85933" lon="-0.36718">
        <ele>71.27</ele>
        <time>2015-12-13T07:54:16Z</time>
      </trkpt>
      <trkpt lat="44.85934" lon="-0.36716">
        <ele>71.27</ele>
        <time>2015-12-13T07:54:31Z</time>
      </trkpt>
      <trkpt lat="44.85935" lon="-0.36712">
        <ele>71.27</ele>
        <time>2015-12-13T07:54:46Z</time>
      </trkpt>
      <trkpt lat="44.85933" lon="-0.36711">
        <ele>71.27</ele>
        <time>2015-12-13T07:54:58Z</time>
      </trkpt>
      <trkpt lat="44.85933" lon="-0.36714">
        <ele>70.79</ele>
        <time>2015-12-13T07:55:22Z</time>
      </trkpt>
      <trkpt lat="44.85934" lon="-0.36714">
        <ele>70.79</ele>
        <time>2015-12-13T07:55:46Z</time>
      </trkpt>
      <trkpt lat="44.85934" lon="-0.36714">
        <ele>70.79</ele>
        <time>2015-12-13T07:56:18Z</time>
      </trkpt>
      <trkpt lat="44.85934" lon="-0.36719">
        <ele>70.31</ele>
        <time>2015-12-13T07:56:35Z</time>
      </trkpt>
      <trkpt lat="44.85934" lon="-0.36718">
        <ele>70.31</ele>
        <time>2015-12-13T07:56:52Z</time>
      </trkpt>
      <trkpt lat="44.85934" lon="-0.36721">
        <ele>70.31</ele>
        <time>2015-12-13T07:57:07Z</time>
      </trkpt>
      <trkpt lat="44.85934" lon="-0.36718">
        <ele>70.31</ele>
        <time>2015-12-13T07:57:21Z</time>
      </trkpt>
      <trkpt lat="44.85934" lon="-0.36717">
        <ele>70.31</ele>
        <time>2015-12-13T07:57:36Z</time>
      </trkpt>
      <trkpt lat="44.85933" lon="-0.36715">
        <ele>70.31</ele>
        <time>2015-12-13T07:58:03Z</time>
      </trkpt>
      <trkpt lat="44.85934" lon="-0.36716">
        <ele>70.31</ele>
        <time>2015-12-13T07:58:24Z</time>
      </trkpt>
      <trkpt lat="44.85935" lon="-0.36714">
        <ele>70.31</ele>
        <time>2015-12-13T07:58:38Z</time>
      </trkpt>
      <trkpt lat="44.85934" lon="-0.36716">
        <ele>70.31</ele>
        <time>2015-12-13T07:58:54Z</time>
      </trkpt>
      <trkpt lat="44.85934" lon="-0.36722">
        <ele>70.31</ele>
        <time>2015-12-13T07:59:12Z</time>
      </trkpt>
      <trkpt lat="44.85935" lon="-0.36721">
        <ele>70.31</ele>
        <time>2015-12-13T07:59:27Z</time>
      </trkpt>
      <trkpt lat="44.85937" lon="-0.36723">
        <ele>70.31</ele>
        <time>2015-12-13T07:59:50Z</time>
      </trkpt>
      <trkpt lat="44.85937" lon="-0.36723">
        <ele>70.31</ele>
        <time>2015-12-13T08:00:16Z</time>
      </trkpt>
      <trkpt lat="44.85936" lon="-0.36723">
        <ele>70.31</ele>
        <time>2015-12-13T08:00:32Z</time>
      </trkpt>
      <trkpt lat="44.85936" lon="-0.36724">
        <ele>70.31</ele>
        <time>2015-12-13T08:00:46Z</time>
      </trkpt>
      <trkpt lat="44.85936" lon="-0.36723">
        <ele>70.31</ele>
        <time>2015-12-13T08:01:08Z</time>
      </trkpt>
      <trkpt lat="44.85934" lon="-0.36721">
        <ele>70.31</ele>
        <time>2015-12-13T08:01:25Z</time>
      </trkpt>
      <trkpt lat="44.85934" lon="-0.36722">
        <ele>70.79</ele>
        <time>2015-12-13T08:01:43Z</time>
      </trkpt>
      <trkpt lat="44.85935" lon="-0.36722">
        <ele>70.79</ele>
        <time>2015-12-13T08:02:06Z</time>
      </trkpt>
      <trkpt lat="44.85934" lon="-0.36721">
        <ele>70.79</ele>
        <time>2015-12-13T08:02:31Z</time>
      </trkpt>
      <trkpt lat="44.85935" lon="-0.3672">
        <ele>70.79</ele>
        <time>2015-12-13T08:02:50Z</time>
      </trkpt>
      <trkpt lat="44.85935" lon="-0.36719">
        <ele>70.79</ele>
        <time>2015-12-13T08:03:11Z</time>
      </trkpt>
      <trkpt lat="44.85937" lon="-0.36716">
        <ele>70.79</ele>
        <time>2015-12-13T08:03:23Z</time>
      </trkpt>
      <trkpt lat="44.85934" lon="-0.36715">
        <ele>70.79</ele>
        <time>2015-12-13T08:03:39Z</time>
      </trkpt>
      <trkpt lat="44.85933" lon="-0.36718">
        <ele>70.79</ele>
        <time>2015-12-13T08:04:06Z</time>
      </trkpt>
      <trkpt lat="44.85934" lon="-0.36718">
        <ele>70.79</ele>
        <time>2015-12-13T08:04:25Z</time>
      </trkpt>
      <trkpt lat="44.85934" lon="-0.36717">
        <ele>70.79</ele>
        <time>2015-12-13T08:04:51Z</time>
      </trkpt>
      <trkpt lat="44.85934" lon="-0.36717">
        <ele>71.27</ele>
        <time>2015-12-13T08:05:14Z</time>
      </trkpt>
      <trkpt lat="44.85937" lon="-0.36723">
        <ele>71.27</ele>
        <time>2015-12-13T08:05:34Z</time>
      </trkpt>
      <trkpt lat="44.85938" lon="-0.36728">
        <ele>71.27</ele>
        <time>2015-12-13T08:05:38Z</time>
      </trkpt>
      <trkpt lat="44.85946" lon="-0.3675">
        <ele>71.27</ele>
        <time>2015-12-13T08:05:53Z</time>
      </trkpt>
      <trkpt lat="44.85951" lon="-0.3676">
        <ele>71.27</ele>
        <time>2015-12-13T08:06:01Z</time>
      </trkpt>
      <trkpt lat="44.85952" lon="-0.36763">
        <ele>71.27</ele>
        <time>2015-12-13T08:06:03Z</time>
      </trkpt>
      <trkpt lat="44.85949" lon="-0.36767">
        <ele>71.27</ele>
        <time>2015-12-13T08:06:07Z</time>
      </trkpt>
      <trkpt lat="44.85946" lon="-0.36765">
        <ele>71.27</ele>
        <time>2015-12-13T08:06:12Z</time>
      </trkpt>
      <trkpt lat="44.85932" lon="-0.36762">
        <ele>70.79</ele>
        <time>2015-12-13T08:06:26Z</time>
      </trkpt>
      <trkpt lat="44.85913" lon="-0.36755">
        <ele>69.35</ele>
        <time>2015-12-13T08:06:42Z</time>
      </trkpt>
      <trkpt lat="44.85906" lon="-0.36752">
        <ele>68.87</ele>
        <time>2015-12-13T08:06:55Z</time>
      </trkpt>
      <trkpt lat="44.85903" lon="-0.36751">
        <ele>68.39</ele>
        <time>2015-12-13T08:06:59Z</time>
      </trkpt>
      <trkpt lat="44.85887" lon="-0.3674">
        <ele>66.95</ele>
        <time>2015-12-13T08:07:15Z</time>
      </trkpt>
      <trkpt lat="44.85875" lon="-0.36729">
        <ele>65.99</ele>
        <time>2015-12-13T08:07:29Z</time>
      </trkpt>
      <trkpt lat="44.8587" lon="-0.36724">
        <ele>65.51</ele>
        <time>2015-12-13T08:07:34Z</time>
      </trkpt>
      <trkpt lat="44.85863" lon="-0.36718">
        <ele>65.03</ele>
        <time>2015-12-13T08:07:42Z</time>
      </trkpt>
      <trkpt lat="44.85852" lon="-0.36706">
        <ele>64.07</ele>
        <time>2015-12-13T08:07:57Z</time>
      </trkpt>
      <trkpt lat="44.8585" lon="-0.36705">
        <ele>63.58</ele>
        <time>2015-12-13T08:08:02Z</time>
      </trkpt>
      <trkpt lat="44.85848" lon="-0.36704">
        <ele>63.58</ele>
        <time>2015-12-13T08:08:04Z</time>
      </trkpt>
      <trkpt lat="44.85837" lon="-0.36681">
        <ele>62.62</ele>
        <time>2015-12-13T08:08:20Z</time>
      </trkpt>
      <trkpt lat="44.85831" lon="-0.36664">
        <ele>62.14</ele>
        <time>2015-12-13T08:08:31Z</time>
      </trkpt>
      <trkpt lat="44.85819" lon="-0.36642">
        <ele>59.74</ele>
        <time>2015-12-13T08:08:47Z</time>
      </trkpt>
      <trkpt lat="44.85811" lon="-0.36626">
        <ele>57.82</ele>
        <time>2015-12-13T08:09:01Z</time>
      </trkpt>
      <trkpt lat="44.85802" lon="-0.3661">
        <ele>55.89</ele>
        <time>2015-12-13T08:09:17Z</time>
      </trkpt>
      <trkpt lat="44.85795" lon="-0.36602">
        <ele>54.93</ele>
        <time>2015-12-13T08:09:24Z</time>
      </trkpt>
      <trkpt lat="44.85786" lon="-0.36593">
        <ele>53.49</ele>
        <time>2015-12-13T08:09:33Z</time>
      </trkpt>
      <trkpt lat="44.85784" lon="-0.36592">
        <ele>53.01</ele>
        <time>2015-12-13T08:09:35Z</time>
      </trkpt>
      <trkpt lat="44.85768" lon="-0.36575">
        <ele>50.61</ele>
        <time>2015-12-13T08:09:50Z</time>
      </trkpt>
      <trkpt lat="44.85751" lon="-0.36559">
        <ele>49.65</ele>
        <time>2015-12-13T08:10:06Z</time>
      </trkpt>
      <trkpt lat="44.85736" lon="-0.36543">
        <ele>47.72</ele>
        <time>2015-12-13T08:10:22Z</time>
      </trkpt>
      <trkpt lat="44.8572" lon="-0.36531">
        <ele>46.28</ele>
        <time>2015-12-13T08:10:36Z</time>
      </trkpt>
      <trkpt lat="44.85703" lon="-0.36518">
        <ele>44.84</ele>
        <time>2015-12-13T08:10:52Z</time>
      </trkpt>
      <trkpt lat="44.85689" lon="-0.36508">
        <ele>43.4</ele>
        <time>2015-12-13T08:11:06Z</time>
      </trkpt>
      <trkpt lat="44.85676" lon="-0.36496">
        <ele>41.95</ele>
        <time>2015-12-13T08:11:19Z</time>
      </trkpt>
      <trkpt lat="44.85675" lon="-0.36493">
        <ele>40.99</ele>
        <time>2015-12-13T08:11:33Z</time>
      </trkpt>
      <trkpt lat="44.85673" lon="-0.36492">
        <ele>40.99</ele>
        <time>2015-12-13T08:11:47Z</time>
      </trkpt>
      <trkpt lat="44.85662" lon="-0.36486">
        <ele>40.51</ele>
        <time>2015-12-13T08:11:58Z</time>
      </trkpt>
      <trkpt lat="44.85658" lon="-0.36485">
        <ele>40.03</ele>
        <time>2015-12-13T08:12:01Z</time>
      </trkpt>
      <trkpt lat="44.85641" lon="-0.36473">
        <ele>38.11</ele>
        <time>2015-12-13T08:12:18Z</time>
      </trkpt>
      <trkpt lat="44.85626" lon="-0.36464">
        <ele>36.19</ele>
        <time>2015-12-13T08:12:32Z</time>
      </trkpt>
      <trkpt lat="44.85611" lon="-0.36459">
        <ele>34.26</ele>
        <time>2015-12-13T08:12:46Z</time>
      </trkpt>
      <trkpt lat="44.85596" lon="-0.36456">
        <ele>33.3</ele>
        <time>2015-12-13T08:12:59Z</time>
      </trkpt>
      <trkpt lat="44.85586" lon="-0.36454">
        <ele>32.34</ele>
        <time>2015-12-13T08:13:08Z</time>
      </trkpt>
      <trkpt lat="44.85582" lon="-0.36452">
        <ele>31.86</ele>
        <time>2015-12-13T08:13:12Z</time>
      </trkpt>
      <trkpt lat="44.85562" lon="-0.3645">
        <ele>30.42</ele>
        <time>2015-12-13T08:13:28Z</time>
      </trkpt>
      <trkpt lat="44.85545" lon="-0.36447">
        <ele>29.46</ele>
        <time>2015-12-13T08:13:43Z</time>
      </trkpt>
      <trkpt lat="44.85528" lon="-0.36443">
        <ele>28.02</ele>
        <time>2015-12-13T08:13:58Z</time>
      </trkpt>
      <trkpt lat="44.85511" lon="-0.36439">
        <ele>27.05</ele>
        <time>2015-12-13T08:14:12Z</time>
      </trkpt>
      <trkpt lat="44.85493" lon="-0.36434">
        <ele>26.09</ele>
        <time>2015-12-13T08:14:26Z</time>
      </trkpt>
      <trkpt lat="44.85476" lon="-0.3643">
        <ele>25.61</ele>
        <time>2015-12-13T08:14:41Z</time>
      </trkpt>
      <trkpt lat="44.85456" lon="-0.36426">
        <ele>24.65</ele>
        <time>2015-12-13T08:14:59Z</time>
      </trkpt>
      <trkpt lat="44.85438" lon="-0.36423">
        <ele>23.21</ele>
        <time>2015-12-13T08:15:15Z</time>
      </trkpt>
      <trkpt lat="44.85419" lon="-0.36417">
        <ele>22.25</ele>
        <time>2015-12-13T08:15:31Z</time>
      </trkpt>
      <trkpt lat="44.85401" lon="-0.36411">
        <ele>21.77</ele>
        <time>2015-12-13T08:15:48Z</time>
      </trkpt>
      <trkpt lat="44.85385" lon="-0.36404">
        <ele>20.81</ele>
        <time>2015-12-13T08:16:02Z</time>
      </trkpt>
      <trkpt lat="44.85368" lon="-0.364">
        <ele>19.36</ele>
        <time>2015-12-13T08:16:17Z</time>
      </trkpt>
      <trkpt lat="44.85365" lon="-0.36399">
        <ele>19.36</ele>
        <time>2015-12-13T08:16:20Z</time>
      </trkpt>
      <trkpt lat="44.85359" lon="-0.36398">
        <ele>18.88</ele>
        <time>2015-12-13T08:16:24Z</time>
      </trkpt>
      <trkpt lat="44.85339" lon="-0.36405">
        <ele>18.88</ele>
        <time>2015-12-13T08:16:39Z</time>
      </trkpt>
      <trkpt lat="44.85332" lon="-0.36417">
        <ele>18.88</ele>
        <time>2015-12-13T08:16:54Z</time>
      </trkpt>
      <trkpt lat="44.85332" lon="-0.36428">
        <ele>21.29</ele>
        <time>2015-12-13T08:17:07Z</time>
      </trkpt>
      <trkpt lat="44.85322" lon="-0.36427">
        <ele>19.84</ele>
        <time>2015-12-13T08:17:22Z</time>
      </trkpt>
      <trkpt lat="44.85321" lon="-0.36429">
        <ele>20.32</ele>
        <time>2015-12-13T08:17:41Z</time>
      </trkpt>
      <trkpt lat="44.85315" lon="-0.36419">
        <ele>22.73</ele>
        <time>2015-12-13T08:17:56Z</time>
      </trkpt>
      <trkpt lat="44.85308" lon="-0.36414">
        <ele>24.17</ele>
        <time>2015-12-13T08:18:14Z</time>
      </trkpt>
      <trkpt lat="44.85298" lon="-0.36406">
        <ele>25.61</ele>
        <time>2015-12-13T08:18:28Z</time>
      </trkpt>
      <trkpt lat="44.85282" lon="-0.364">
        <ele>26.57</ele>
        <time>2015-12-13T08:18:39Z</time>
      </trkpt>
      <trkpt lat="44.85266" lon="-0.36396">
        <ele>28.98</ele>
        <time>2015-12-13T08:18:55Z</time>
      </trkpt>
      <trkpt lat="44.85249" lon="-0.36393">
        <ele>30.42</ele>
        <time>2015-12-13T08:19:11Z</time>
      </trkpt>
      <trkpt lat="44.85234" lon="-0.3639">
        <ele>32.34</ele>
        <time>2015-12-13T08:19:27Z</time>
      </trkpt>
      <trkpt lat="44.85216" lon="-0.36383">
        <ele>33.3</ele>
        <time>2015-12-13T08:19:43Z</time>
      </trkpt>
      <trkpt lat="44.85205" lon="-0.36376">
        <ele>33.3</ele>
        <time>2015-12-13T08:20:00Z</time>
      </trkpt>
      <trkpt lat="44.85187" lon="-0.36369">
        <ele>33.78</ele>
        <time>2015-12-13T08:20:14Z</time>
      </trkpt>
      <trkpt lat="44.85176" lon="-0.36366">
        <ele>32.34</ele>
        <time>2015-12-13T08:20:22Z</time>
      </trkpt>
      <trkpt lat="44.85162" lon="-0.36361">
        <ele>32.34</ele>
        <time>2015-12-13T08:20:38Z</time>
      </trkpt>
      <trkpt lat="44.85154" lon="-0.36366">
        <ele>32.34</ele>
        <time>2015-12-13T08:20:50Z</time>
      </trkpt>
      <trkpt lat="44.85158" lon="-0.36386">
        <ele>33.78</ele>
        <time>2015-12-13T08:21:04Z</time>
      </trkpt>
      <trkpt lat="44.85159" lon="-0.36395">
        <ele>33.78</ele>
        <time>2015-12-13T08:21:11Z</time>
      </trkpt>
      <trkpt lat="44.85167" lon="-0.36417">
        <ele>34.74</ele>
        <time>2015-12-13T08:21:25Z</time>
      </trkpt>
      <trkpt lat="44.8517" lon="-0.3644">
        <ele>34.74</ele>
        <time>2015-12-13T08:21:41Z</time>
      </trkpt>
      <trkpt lat="44.85167" lon="-0.36453">
        <ele>35.23</ele>
        <time>2015-12-13T08:21:50Z</time>
      </trkpt>
      <trkpt lat="44.85157" lon="-0.36474">
        <ele>35.71</ele>
        <time>2015-12-13T08:22:06Z</time>
      </trkpt>
      <trkpt lat="44.85148" lon="-0.36488">
        <ele>35.71</ele>
        <time>2015-12-13T08:22:21Z</time>
      </trkpt>
      <trkpt lat="44.85145" lon="-0.36491">
        <ele>35.71</ele>
        <time>2015-12-13T08:22:24Z</time>
      </trkpt>
      <trkpt lat="44.85136" lon="-0.36509">
        <ele>35.71</ele>
        <time>2015-12-13T08:22:38Z</time>
      </trkpt>
      <trkpt lat="44.85137" lon="-0.36536">
        <ele>37.15</ele>
        <time>2015-12-13T08:22:53Z</time>
      </trkpt>
      <trkpt lat="44.85129" lon="-0.3656">
        <ele>38.11</ele>
        <time>2015-12-13T08:23:09Z</time>
      </trkpt>
      <trkpt lat="44.85125" lon="-0.3657">
        <ele>39.07</ele>
        <time>2015-12-13T08:23:19Z</time>
      </trkpt>
      <trkpt lat="44.85115" lon="-0.36592">
        <ele>41.47</ele>
        <time>2015-12-13T08:23:36Z</time>
      </trkpt>
      <trkpt lat="44.85117" lon="-0.36616">
        <ele>41.95</ele>
        <time>2015-12-13T08:23:53Z</time>
      </trkpt>
      <trkpt lat="44.85112" lon="-0.36641">
        <ele>42.44</ele>
        <time>2015-12-13T08:24:08Z</time>
      </trkpt>
      <trkpt lat="44.85108" lon="-0.36663">
        <ele>42.44</ele>
        <time>2015-12-13T08:24:23Z</time>
      </trkpt>
      <trkpt lat="44.85106" lon="-0.36678">
        <ele>41.47</ele>
        <time>2015-12-13T08:24:32Z</time>
      </trkpt>
      <trkpt lat="44.85101" lon="-0.36709">
        <ele>40.99</ele>
        <time>2015-12-13T08:24:49Z</time>
      </trkpt>
      <trkpt lat="44.851" lon="-0.36728">
        <ele>40.99</ele>
        <time>2015-12-13T08:25:03Z</time>
      </trkpt>
      <trkpt lat="44.85101" lon="-0.36739">
        <ele>40.99</ele>
        <time>2015-12-13T08:25:20Z</time>
      </trkpt>
      <trkpt lat="44.85105" lon="-0.36739">
        <ele>40.99</ele>
        <time>2015-12-13T08:25:38Z</time>
      </trkpt>
      <trkpt lat="44.85108" lon="-0.36743">
        <ele>40.99</ele>
        <time>2015-12-13T08:26:00Z</time>
      </trkpt>
      <trkpt lat="44.85104" lon="-0.36753">
        <ele>40.99</ele>
        <time>2015-12-13T08:26:31Z</time>
      </trkpt>
      <trkpt lat="44.85102" lon="-0.36762">
        <ele>42.92</ele>
        <time>2015-12-13T08:26:53Z</time>
      </trkpt>
      <trkpt lat="44.85102" lon="-0.36785">
        <ele>43.88</ele>
        <time>2015-12-13T08:27:07Z</time>
      </trkpt>
      <trkpt lat="44.85105" lon="-0.36801">
        <ele>44.84</ele>
        <time>2015-12-13T08:27:22Z</time>
      </trkpt>
      <trkpt lat="44.85107" lon="-0.36809">
        <ele>45.32</ele>
        <time>2015-12-13T08:27:28Z</time>
      </trkpt>
      <trkpt lat="44.85124" lon="-0.36821">
        <ele>47.24</ele>
        <time>2015-12-13T08:27:43Z</time>
      </trkpt>
      <trkpt lat="44.85138" lon="-0.3683">
        <ele>47.72</ele>
        <time>2015-12-13T08:27:56Z</time>
      </trkpt>
      <trkpt lat="44.85149" lon="-0.36843">
        <ele>48.68</ele>
        <time>2015-12-13T08:28:09Z</time>
      </trkpt>
      <trkpt lat="44.85162" lon="-0.36856">
        <ele>48.68</ele>
        <time>2015-12-13T08:28:21Z</time>
      </trkpt>
      <trkpt lat="44.85163" lon="-0.36859">
        <ele>47.24</ele>
        <time>2015-12-13T08:28:24Z</time>
      </trkpt>
      <trkpt lat="44.85167" lon="-0.36868">
        <ele>46.28</ele>
        <time>2015-12-13T08:28:29Z</time>
      </trkpt>
      <trkpt lat="44.85174" lon="-0.36884">
        <ele>45.32</ele>
        <time>2015-12-13T08:28:42Z</time>
      </trkpt>
      <trkpt lat="44.85184" lon="-0.36898">
        <ele>44.36</ele>
        <time>2015-12-13T08:28:58Z</time>
      </trkpt>
      <trkpt lat="44.85196" lon="-0.36912">
        <ele>43.4</ele>
        <time>2015-12-13T08:29:14Z</time>
      </trkpt>
      <trkpt lat="44.8521" lon="-0.36927">
        <ele>42.92</ele>
        <time>2015-12-13T08:29:30Z</time>
      </trkpt>
      <trkpt lat="44.85218" lon="-0.36939">
        <ele>42.92</ele>
        <time>2015-12-13T08:29:38Z</time>
      </trkpt>
      <trkpt lat="44.85226" lon="-0.36951">
        <ele>42.44</ele>
        <time>2015-12-13T08:29:54Z</time>
      </trkpt>
      <trkpt lat="44.85226" lon="-0.36949">
        <ele>42.92</ele>
        <time>2015-12-13T08:30:07Z</time>
      </trkpt>
      <trkpt lat="44.8523" lon="-0.36947">
        <ele>42.44</ele>
        <time>2015-12-13T08:30:30Z</time>
      </trkpt>
      <trkpt lat="44.85232" lon="-0.36949">
        <ele>42.44</ele>
        <time>2015-12-13T08:31:02Z</time>
      </trkpt>
      <trkpt lat="44.85233" lon="-0.3695">
        <ele>42.44</ele>
        <time>2015-12-13T08:31:28Z</time>
      </trkpt>
      <trkpt lat="44.85238" lon="-0.3696">
        <ele>41.95</ele>
        <time>2015-12-13T08:31:49Z</time>
      </trkpt>
      <trkpt lat="44.85239" lon="-0.3698">
        <ele>39.55</ele>
        <time>2015-12-13T08:32:05Z</time>
      </trkpt>
      <trkpt lat="44.85242" lon="-0.37002">
        <ele>39.07</ele>
        <time>2015-12-13T08:32:19Z</time>
      </trkpt>
      <trkpt lat="44.85243" lon="-0.37016">
        <ele>38.59</ele>
        <time>2015-12-13T08:32:36Z</time>
      </trkpt>
      <trkpt lat="44.85245" lon="-0.37026">
        <ele>38.11</ele>
        <time>2015-12-13T08:32:48Z</time>
      </trkpt>
      <trkpt lat="44.85248" lon="-0.37045">
        <ele>37.63</ele>
        <time>2015-12-13T08:32:58Z</time>
      </trkpt>
      <trkpt lat="44.85252" lon="-0.3707">
        <ele>36.67</ele>
        <time>2015-12-13T08:33:14Z</time>
      </trkpt>
      <trkpt lat="44.85241" lon="-0.37075">
        <ele>34.74</ele>
        <time>2015-12-13T08:33:28Z</time>
      </trkpt>
      <trkpt lat="44.85227" lon="-0.37072">
        <ele>33.3</ele>
        <time>2015-12-13T08:33:44Z</time>
      </trkpt>
      <trkpt lat="44.85223" lon="-0.3707">
        <ele>32.82</ele>
        <time>2015-12-13T08:33:48Z</time>
      </trkpt>
      <trkpt lat="44.85213" lon="-0.37068">
        <ele>32.82</ele>
        <time>2015-12-13T08:33:56Z</time>
      </trkpt>
      <trkpt lat="44.85198" lon="-0.37056">
        <ele>31.86</ele>
        <time>2015-12-13T08:34:10Z</time>
      </trkpt>
      <trkpt lat="44.85187" lon="-0.3705">
        <ele>30.42</ele>
        <time>2015-12-13T08:34:19Z</time>
      </trkpt>
      <trkpt lat="44.8517" lon="-0.37039">
        <ele>29.94</ele>
        <time>2015-12-13T08:34:34Z</time>
      </trkpt>
      <trkpt lat="44.85153" lon="-0.3703">
        <ele>29.94</ele>
        <time>2015-12-13T08:34:49Z</time>
      </trkpt>
      <trkpt lat="44.85136" lon="-0.37028">
        <ele>29.94</ele>
        <time>2015-12-13T08:35:03Z</time>
      </trkpt>
      <trkpt lat="44.85118" lon="-0.37022">
        <ele>29.94</ele>
        <time>2015-12-13T08:35:19Z</time>
      </trkpt>
      <trkpt lat="44.85106" lon="-0.37014">
        <ele>29.46</ele>
        <time>2015-12-13T08:35:30Z</time>
      </trkpt>
      <trkpt lat="44.85089" lon="-0.36999">
        <ele>29.46</ele>
        <time>2015-12-13T08:35:46Z</time>
      </trkpt>
      <trkpt lat="44.8508" lon="-0.36991">
        <ele>28.98</ele>
        <time>2015-12-13T08:35:54Z</time>
      </trkpt>
      <trkpt lat="44.85076" lon="-0.3699">
        <ele>28.98</ele>
        <time>2015-12-13T08:35:57Z</time>
      </trkpt>
      <trkpt lat="44.85059" lon="-0.36973">
        <ele>28.02</ele>
        <time>2015-12-13T08:36:12Z</time>
      </trkpt>
      <trkpt lat="44.85052" lon="-0.36963">
        <ele>28.02</ele>
        <time>2015-12-13T08:36:19Z</time>
      </trkpt>
      <trkpt lat="44.85049" lon="-0.3696">
        <ele>28.02</ele>
        <time>2015-12-13T08:36:22Z</time>
      </trkpt>
      <trkpt lat="44.85041" lon="-0.36949">
        <ele>27.53</ele>
        <time>2015-12-13T08:36:32Z</time>
      </trkpt>
      <trkpt lat="44.85033" lon="-0.36926">
        <ele>27.53</ele>
        <time>2015-12-13T08:36:46Z</time>
      </trkpt>
      <trkpt lat="44.85021" lon="-0.36904">
        <ele>26.57</ele>
        <time>2015-12-13T08:37:02Z</time>
      </trkpt>
      <trkpt lat="44.85014" lon="-0.36881">
        <ele>26.57</ele>
        <time>2015-12-13T08:37:16Z</time>
      </trkpt>
      <trkpt lat="44.85012" lon="-0.36877">
        <ele>26.57</ele>
        <time>2015-12-13T08:37:19Z</time>
      </trkpt>
      <trkpt lat="44.85001" lon="-0.36853">
        <ele>25.61</ele>
        <time>2015-12-13T08:37:36Z</time>
      </trkpt>
      <trkpt lat="44.84989" lon="-0.3683">
        <ele>25.13</ele>
        <time>2015-12-13T08:37:52Z</time>
      </trkpt>
      <trkpt lat="44.84975" lon="-0.36809">
        <ele>24.65</ele>
        <time>2015-12-13T08:38:07Z</time>
      </trkpt>
      <trkpt lat="44.84965" lon="-0.36785">
        <ele>24.17</ele>
        <time>2015-12-13T08:38:23Z</time>
      </trkpt>
      <trkpt lat="44.84964" lon="-0.36783">
        <ele>24.17</ele>
        <time>2015-12-13T08:38:25Z</time>
      </trkpt>
      <trkpt lat="44.84948" lon="-0.36756">
        <ele>24.17</ele>
        <time>2015-12-13T08:38:42Z</time>
      </trkpt>
      <trkpt lat="44.84936" lon="-0.36734">
        <ele>24.17</ele>
        <time>2015-12-13T08:38:58Z</time>
      </trkpt>
      <trkpt lat="44.84928" lon="-0.36722">
        <ele>23.69</ele>
        <time>2015-12-13T08:39:09Z</time>
      </trkpt>
      <trkpt lat="44.84927" lon="-0.36719">
        <ele>23.69</ele>
        <time>2015-12-13T08:39:11Z</time>
      </trkpt>
      <trkpt lat="44.84921" lon="-0.36694">
        <ele>23.21</ele>
        <time>2015-12-13T08:39:26Z</time>
      </trkpt>
      <trkpt lat="44.84917" lon="-0.36664">
        <ele>22.73</ele>
        <time>2015-12-13T08:39:43Z</time>
      </trkpt>
      <trkpt lat="44.84917" lon="-0.36629">
        <ele>22.25</ele>
        <time>2015-12-13T08:40:02Z</time>
      </trkpt>
      <trkpt lat="44.84929" lon="-0.36605">
        <ele>22.25</ele>
        <time>2015-12-13T08:40:18Z</time>
      </trkpt>
      <trkpt lat="44.84936" lon="-0.36583">
        <ele>23.69</ele>
        <time>2015-12-13T08:40:36Z</time>
      </trkpt>
      <trkpt lat="44.8494" lon="-0.36557">
        <ele>23.69</ele>
        <time>2015-12-13T08:40:54Z</time>
      </trkpt>
      <trkpt lat="44.84939" lon="-0.3653">
        <ele>23.69</ele>
        <time>2015-12-13T08:41:09Z</time>
      </trkpt>
      <trkpt lat="44.84941" lon="-0.3651">
        <ele>22.73</ele>
        <time>2015-12-13T08:41:21Z</time>
      </trkpt>
      <trkpt lat="44.84943" lon="-0.36483">
        <ele>21.29</ele>
        <time>2015-12-13T08:41:35Z</time>
      </trkpt>
      <trkpt lat="44.8495" lon="-0.36462">
        <ele>21.29</ele>
        <time>2015-12-13T08:41:50Z</time>
      </trkpt>
      <trkpt lat="44.84959" lon="-0.36439">
        <ele>21.29</ele>
        <time>2015-12-13T08:42:07Z</time>
      </trkpt>
      <trkpt lat="44.84952" lon="-0.36415">
        <ele>20.32</ele>
        <time>2015-12-13T08:42:23Z</time>
      </trkpt>
      <trkpt lat="44.84942" lon="-0.36401">
        <ele>20.81</ele>
        <time>2015-12-13T08:42:40Z</time>
      </trkpt>
      <trkpt lat="44.84939" lon="-0.36401">
        <ele>20.81</ele>
        <time>2015-12-13T08:43:05Z</time>
      </trkpt>
      <trkpt lat="44.84935" lon="-0.36403">
        <ele>20.81</ele>
        <time>2015-12-13T08:43:37Z</time>
      </trkpt>
      <trkpt lat="44.84937" lon="-0.36403">
        <ele>21.29</ele>
        <time>2015-12-13T08:44:07Z</time>
      </trkpt>
      <trkpt lat="44.84938" lon="-0.36404">
        <ele>21.77</ele>
        <time>2015-12-13T08:44:33Z</time>
      </trkpt>
      <trkpt lat="44.84937" lon="-0.36408">
        <ele>21.77</ele>
        <time>2015-12-13T08:44:59Z</time>
      </trkpt>
      <trkpt lat="44.84935" lon="-0.36403">
        <ele>21.77</ele>
        <time>2015-12-13T08:45:28Z</time>
      </trkpt>
      <trkpt lat="44.84939" lon="-0.36401">
        <ele>22.25</ele>
        <time>2015-12-13T08:45:52Z</time>
      </trkpt>
      <trkpt lat="44.84942" lon="-0.36414">
        <ele>22.25</ele>
        <time>2015-12-13T08:46:28Z</time>
      </trkpt>
      <trkpt lat="44.84939" lon="-0.36412">
        <ele>22.25</ele>
        <time>2015-12-13T08:46:57Z</time>
      </trkpt>
      <trkpt lat="44.84938" lon="-0.36407">
        <ele>22.25</ele>
        <time>2015-12-13T08:47:28Z</time>
      </trkpt>
      <trkpt lat="44.84936" lon="-0.36402">
        <ele>20.81</ele>
        <time>2015-12-13T08:47:32Z</time>
      </trkpt>
      <trkpt lat="44.8494" lon="-0.36376">
        <ele>21.29</ele>
        <time>2015-12-13T08:47:49Z</time>
      </trkpt>
      <trkpt lat="44.84935" lon="-0.36354">
        <ele>20.81</ele>
        <time>2015-12-13T08:48:06Z</time>
      </trkpt>
      <trkpt lat="44.84928" lon="-0.36349">
        <ele>23.69</ele>
        <time>2015-12-13T08:48:20Z</time>
      </trkpt>
      <trkpt lat="44.84923" lon="-0.36357">
        <ele>21.77</ele>
        <time>2015-12-13T08:48:42Z</time>
      </trkpt>
      <trkpt lat="44.84923" lon="-0.36359">
        <ele>21.29</ele>
        <time>2015-12-13T08:49:13Z</time>
      </trkpt>
      <trkpt lat="44.84924" lon="-0.36364">
        <ele>21.29</ele>
        <time>2015-12-13T08:49:44Z</time>
      </trkpt>
      <trkpt lat="44.84922" lon="-0.36365">
        <ele>21.29</ele>
        <time>2015-12-13T08:50:11Z</time>
      </trkpt>
      <trkpt lat="44.84919" lon="-0.36366">
        <ele>21.29</ele>
        <time>2015-12-13T08:50:30Z</time>
      </trkpt>
      <trkpt lat="44.84913" lon="-0.36376">
        <ele>21.29</ele>
        <time>2015-12-13T08:50:48Z</time>
      </trkpt>
      <trkpt lat="44.84902" lon="-0.36379">
        <ele>21.29</ele>
        <time>2015-12-13T08:51:05Z</time>
      </trkpt>
      <trkpt lat="44.84891" lon="-0.36367">
        <ele>22.73</ele>
        <time>2015-12-13T08:51:22Z</time>
      </trkpt>
      <trkpt lat="44.84869" lon="-0.36351">
        <ele>25.61</ele>
        <time>2015-12-13T08:51:43Z</time>
      </trkpt>
      <trkpt lat="44.84855" lon="-0.36342">
        <ele>27.05</ele>
        <time>2015-12-13T08:51:57Z</time>
      </trkpt>
      <trkpt lat="44.84837" lon="-0.36334">
        <ele>26.09</ele>
        <time>2015-12-13T08:52:13Z</time>
      </trkpt>
      <trkpt lat="44.84822" lon="-0.36331">
        <ele>25.13</ele>
        <time>2015-12-13T08:52:28Z</time>
      </trkpt>
      <trkpt lat="44.84816" lon="-0.36334">
        <ele>24.65</ele>
        <time>2015-12-13T08:52:39Z</time>
      </trkpt>
      <trkpt lat="44.84798" lon="-0.3634">
        <ele>24.65</ele>
        <time>2015-12-13T08:52:54Z</time>
      </trkpt>
      <trkpt lat="44.84781" lon="-0.36352">
        <ele>24.65</ele>
        <time>2015-12-13T08:53:10Z</time>
      </trkpt>
      <trkpt lat="44.84764" lon="-0.36367">
        <ele>24.65</ele>
        <time>2015-12-13T08:53:25Z</time>
      </trkpt>
      <trkpt lat="44.84745" lon="-0.36382">
        <ele>24.65</ele>
        <time>2015-12-13T08:53:43Z</time>
      </trkpt>
      <trkpt lat="44.84728" lon="-0.36395">
        <ele>25.61</ele>
        <time>2015-12-13T08:53:58Z</time>
      </trkpt>
      <trkpt lat="44.84713" lon="-0.36407">
        <ele>26.09</ele>
        <time>2015-12-13T08:54:13Z</time>
      </trkpt>
      <trkpt lat="44.84696" lon="-0.3642">
        <ele>27.05</ele>
        <time>2015-12-13T08:54:29Z</time>
      </trkpt>
      <trkpt lat="44.84685" lon="-0.3643">
        <ele>27.53</ele>
        <time>2015-12-13T08:54:39Z</time>
      </trkpt>
      <trkpt lat="44.84667" lon="-0.36435">
        <ele>28.5</ele>
        <time>2015-12-13T08:54:56Z</time>
      </trkpt>
      <trkpt lat="44.84651" lon="-0.36422">
        <ele>28.5</ele>
        <time>2015-12-13T08:55:11Z</time>
      </trkpt>
      <trkpt lat="44.84643" lon="-0.36414">
        <ele>27.05</ele>
        <time>2015-12-13T08:55:20Z</time>
      </trkpt>
      <trkpt lat="44.84631" lon="-0.36401">
        <ele>27.05</ele>
        <time>2015-12-13T08:55:32Z</time>
      </trkpt>
      <trkpt lat="44.84615" lon="-0.36385">
        <ele>26.57</ele>
        <time>2015-12-13T08:55:47Z</time>
      </trkpt>
      <trkpt lat="44.84596" lon="-0.36372">
        <ele>25.61</ele>
        <time>2015-12-13T08:56:04Z</time>
      </trkpt>
      <trkpt lat="44.84576" lon="-0.36363">
        <ele>25.13</ele>
        <time>2015-12-13T08:56:20Z</time>
      </trkpt>
      <trkpt lat="44.84556" lon="-0.36355">
        <ele>24.65</ele>
        <time>2015-12-13T08:56:37Z</time>
      </trkpt>
      <trkpt lat="44.84536" lon="-0.36352">
        <ele>24.65</ele>
        <time>2015-12-13T08:56:52Z</time>
      </trkpt>
      <trkpt lat="44.84533" lon="-0.36351">
        <ele>24.65</ele>
        <time>2015-12-13T08:56:55Z</time>
      </trkpt>
      <trkpt lat="44.84524" lon="-0.36352">
        <ele>24.65</ele>
        <time>2015-12-13T08:57:02Z</time>
      </trkpt>
      <trkpt lat="44.84517" lon="-0.36348">
        <ele>24.65</ele>
        <time>2015-12-13T08:57:14Z</time>
      </trkpt>
      <trkpt lat="44.84516" lon="-0.36349">
        <ele>24.65</ele>
        <time>2015-12-13T08:57:35Z</time>
      </trkpt>
      <trkpt lat="44.84515" lon="-0.3635">
        <ele>24.65</ele>
        <time>2015-12-13T08:57:59Z</time>
      </trkpt>
      <trkpt lat="44.84517" lon="-0.3635">
        <ele>24.65</ele>
        <time>2015-12-13T08:58:17Z</time>
      </trkpt>
      <trkpt lat="44.84515" lon="-0.36342">
        <ele>24.65</ele>
        <time>2015-12-13T08:58:34Z</time>
      </trkpt>
      <trkpt lat="44.84514" lon="-0.36337">
        <ele>24.65</ele>
        <time>2015-12-13T08:58:37Z</time>
      </trkpt>
      <trkpt lat="44.84514" lon="-0.36312">
        <ele>24.17</ele>
        <time>2015-12-13T08:58:53Z</time>
      </trkpt>
      <trkpt lat="44.84514" lon="-0.36282">
        <ele>24.17</ele>
        <time>2015-12-13T08:59:09Z</time>
      </trkpt>
      <trkpt lat="44.84509" lon="-0.36244">
        <ele>23.69</ele>
        <time>2015-12-13T08:59:29Z</time>
      </trkpt>
      <trkpt lat="44.84508" lon="-0.36219">
        <ele>23.69</ele>
        <time>2015-12-13T08:59:44Z</time>
      </trkpt>
      <trkpt lat="44.84507" lon="-0.36187">
        <ele>24.17</ele>
        <time>2015-12-13T09:00:01Z</time>
      </trkpt>
      <trkpt lat="44.84507" lon="-0.36165">
        <ele>23.69</ele>
        <time>2015-12-13T09:00:14Z</time>
      </trkpt>
      <trkpt lat="44.84507" lon="-0.36145">
        <ele>25.13</ele>
        <time>2015-12-13T09:00:25Z</time>
      </trkpt>
      <trkpt lat="44.84506" lon="-0.36117">
        <ele>25.61</ele>
        <time>2015-12-13T09:00:42Z</time>
      </trkpt>
      <trkpt lat="44.84507" lon="-0.3611">
        <ele>26.09</ele>
        <time>2015-12-13T09:00:57Z</time>
      </trkpt>
      <trkpt lat="44.84507" lon="-0.36109">
        <ele>26.09</ele>
        <time>2015-12-13T09:01:10Z</time>
      </trkpt>
      <trkpt lat="44.84512" lon="-0.36114">
        <ele>24.65</ele>
        <time>2015-12-13T09:01:15Z</time>
      </trkpt>
      <trkpt lat="44.84513" lon="-0.36115">
        <ele>24.17</ele>
        <time>2015-12-13T09:01:17Z</time>
      </trkpt>
      <trkpt lat="44.84519" lon="-0.36121">
        <ele>23.69</ele>
        <time>2015-12-13T09:01:24Z</time>
      </trkpt>
      <trkpt lat="44.84531" lon="-0.36135">
        <ele>22.73</ele>
        <time>2015-12-13T09:01:38Z</time>
      </trkpt>
      <trkpt lat="44.84543" lon="-0.36144">
        <ele>22.73</ele>
        <time>2015-12-13T09:01:53Z</time>
      </trkpt>
      <trkpt lat="44.84548" lon="-0.36149">
        <ele>22.73</ele>
        <time>2015-12-13T09:01:58Z</time>
      </trkpt>
      <trkpt lat="44.84558" lon="-0.36155">
        <ele>23.21</ele>
        <time>2015-12-13T09:02:08Z</time>
      </trkpt>
      <trkpt lat="44.84573" lon="-0.36158">
        <ele>23.21</ele>
        <time>2015-12-13T09:02:21Z</time>
      </trkpt>
      <trkpt lat="44.84594" lon="-0.36171">
        <ele>22.73</ele>
        <time>2015-12-13T09:02:38Z</time>
      </trkpt>
      <trkpt lat="44.84612" lon="-0.36176">
        <ele>23.21</ele>
        <time>2015-12-13T09:02:53Z</time>
      </trkpt>
      <trkpt lat="44.84627" lon="-0.36179">
        <ele>23.21</ele>
        <time>2015-12-13T09:03:08Z</time>
      </trkpt>
      <trkpt lat="44.84642" lon="-0.36182">
        <ele>23.69</ele>
        <time>2015-12-13T09:03:24Z</time>
      </trkpt>
      <trkpt lat="44.84661" lon="-0.3619">
        <ele>23.69</ele>
        <time>2015-12-13T09:03:41Z</time>
      </trkpt>
      <trkpt lat="44.84672" lon="-0.36198">
        <ele>22.73</ele>
        <time>2015-12-13T09:03:55Z</time>
      </trkpt>
      <trkpt lat="44.84682" lon="-0.36201">
        <ele>22.73</ele>
        <time>2015-12-13T09:04:06Z</time>
      </trkpt>
      <trkpt lat="44.84699" lon="-0.36206">
        <ele>23.21</ele>
        <time>2015-12-13T09:04:21Z</time>
      </trkpt>
      <trkpt lat="44.84707" lon="-0.3619">
        <ele>23.21</ele>
        <time>2015-12-13T09:04:38Z</time>
      </trkpt>
      <trkpt lat="44.84711" lon="-0.36173">
        <ele>23.69</ele>
        <time>2015-12-13T09:05:06Z</time>
      </trkpt>
      <trkpt lat="44.84715" lon="-0.36171">
        <ele>24.17</ele>
        <time>2015-12-13T09:05:34Z</time>
      </trkpt>
      <trkpt lat="44.84719" lon="-0.36168">
        <ele>24.17</ele>
        <time>2015-12-13T09:05:58Z</time>
      </trkpt>
      <trkpt lat="44.84719" lon="-0.3617">
        <ele>24.65</ele>
        <time>2015-12-13T09:06:17Z</time>
      </trkpt>
      <trkpt lat="44.84719" lon="-0.36176">
        <ele>24.65</ele>
        <time>2015-12-13T09:06:42Z</time>
      </trkpt>
      <trkpt lat="44.84739" lon="-0.36189">
        <ele>24.17</ele>
        <time>2015-12-13T09:07:00Z</time>
      </trkpt>
      <trkpt lat="44.8476" lon="-0.36183">
        <ele>24.17</ele>
        <time>2015-12-13T09:07:18Z</time>
      </trkpt>
      <trkpt lat="44.84774" lon="-0.36181">
        <ele>24.17</ele>
        <time>2015-12-13T09:07:35Z</time>
      </trkpt>
      <trkpt lat="44.84784" lon="-0.36178">
        <ele>24.65</ele>
        <time>2015-12-13T09:07:53Z</time>
      </trkpt>
      <trkpt lat="44.84786" lon="-0.36177">
        <ele>24.65</ele>
        <time>2015-12-13T09:07:57Z</time>
      </trkpt>
      <trkpt lat="44.84796" lon="-0.36171">
        <ele>24.65</ele>
        <time>2015-12-13T09:08:06Z</time>
      </trkpt>
      <trkpt lat="44.84817" lon="-0.36163">
        <ele>23.69</ele>
        <time>2015-12-13T09:08:24Z</time>
      </trkpt>
      <trkpt lat="44.84829" lon="-0.36142">
        <ele>23.69</ele>
        <time>2015-12-13T09:08:39Z</time>
      </trkpt>
      <trkpt lat="44.84835" lon="-0.36125">
        <ele>25.13</ele>
        <time>2015-12-13T09:08:53Z</time>
      </trkpt>
      <trkpt lat="44.84842" lon="-0.36103">
        <ele>25.61</ele>
        <time>2015-12-13T09:09:12Z</time>
      </trkpt>
      <trkpt lat="44.84847" lon="-0.36085">
        <ele>26.57</ele>
        <time>2015-12-13T09:09:27Z</time>
      </trkpt>
      <trkpt lat="44.84855" lon="-0.36082">
        <ele>26.57</ele>
        <time>2015-12-13T09:09:36Z</time>
      </trkpt>
      <trkpt lat="44.84877" lon="-0.36073">
        <ele>26.57</ele>
        <time>2015-12-13T09:09:53Z</time>
      </trkpt>
      <trkpt lat="44.84892" lon="-0.36061">
        <ele>26.57</ele>
        <time>2015-12-13T09:10:06Z</time>
      </trkpt>
      <trkpt lat="44.84899" lon="-0.36043">
        <ele>27.05</ele>
        <time>2015-12-13T09:10:19Z</time>
      </trkpt>
      <trkpt lat="44.84896" lon="-0.36033">
        <ele>27.53</ele>
        <time>2015-12-13T09:10:38Z</time>
      </trkpt>
      <trkpt lat="44.84892" lon="-0.36031">
        <ele>28.02</ele>
        <time>2015-12-13T09:10:56Z</time>
      </trkpt>
      <trkpt lat="44.8489" lon="-0.36026">
        <ele>28.02</ele>
        <time>2015-12-13T09:11:14Z</time>
      </trkpt>
      <trkpt lat="44.84887" lon="-0.3603">
        <ele>28.5</ele>
        <time>2015-12-13T09:11:36Z</time>
      </trkpt>
      <trkpt lat="44.84885" lon="-0.36029">
        <ele>28.5</ele>
        <time>2015-12-13T09:11:50Z</time>
      </trkpt>
      <trkpt lat="44.84884" lon="-0.36006">
        <ele>30.42</ele>
        <time>2015-12-13T09:12:08Z</time>
      </trkpt>
      <trkpt lat="44.84881" lon="-0.35985">
        <ele>34.26</ele>
        <time>2015-12-13T09:12:23Z</time>
      </trkpt>
      <trkpt lat="44.84875" lon="-0.35963">
        <ele>36.67</ele>
        <time>2015-12-13T09:12:39Z</time>
      </trkpt>
      <trkpt lat="44.84872" lon="-0.35948">
        <ele>38.59</ele>
        <time>2015-12-13T09:12:48Z</time>
      </trkpt>
      <trkpt lat="44.84861" lon="-0.35931">
        <ele>39.07</ele>
        <time>2015-12-13T09:13:02Z</time>
      </trkpt>
      <trkpt lat="44.84858" lon="-0.35928">
        <ele>40.03</ele>
        <time>2015-12-13T09:13:15Z</time>
      </trkpt>
      <trkpt lat="44.84857" lon="-0.35925">
        <ele>40.03</ele>
        <time>2015-12-13T09:13:35Z</time>
      </trkpt>
      <trkpt lat="44.84857" lon="-0.35923">
        <ele>40.03</ele>
        <time>2015-12-13T09:13:48Z</time>
      </trkpt>
      <trkpt lat="44.84858" lon="-0.35923">
        <ele>39.55</ele>
        <time>2015-12-13T09:14:19Z</time>
      </trkpt>
      <trkpt lat="44.84854" lon="-0.35924">
        <ele>39.55</ele>
        <time>2015-12-13T09:14:30Z</time>
      </trkpt>
      <trkpt lat="44.84848" lon="-0.35924">
        <ele>39.55</ele>
        <time>2015-12-13T09:14:35Z</time>
      </trkpt>
      <trkpt lat="44.84845" lon="-0.35926">
        <ele>39.55</ele>
        <time>2015-12-13T09:14:38Z</time>
      </trkpt>
      <trkpt lat="44.84833" lon="-0.35912">
        <ele>40.03</ele>
        <time>2015-12-13T09:14:51Z</time>
      </trkpt>
      <trkpt lat="44.84822" lon="-0.35893">
        <ele>40.99</ele>
        <time>2015-12-13T09:15:05Z</time>
      </trkpt>
      <trkpt lat="44.84812" lon="-0.35877">
        <ele>41.95</ele>
        <time>2015-12-13T09:15:18Z</time>
      </trkpt>
      <trkpt lat="44.8481" lon="-0.35874">
        <ele>41.95</ele>
        <time>2015-12-13T09:15:20Z</time>
      </trkpt>
      <trkpt lat="44.84808" lon="-0.35858">
        <ele>43.4</ele>
        <time>2015-12-13T09:15:34Z</time>
      </trkpt>
      <trkpt lat="44.84816" lon="-0.35846">
        <ele>43.4</ele>
        <time>2015-12-13T09:15:46Z</time>
      </trkpt>
      <trkpt lat="44.84824" lon="-0.35828">
        <ele>43.4</ele>
        <time>2015-12-13T09:16:00Z</time>
      </trkpt>
      <trkpt lat="44.84832" lon="-0.35813">
        <ele>43.4</ele>
        <time>2015-12-13T09:16:11Z</time>
      </trkpt>
      <trkpt lat="44.84841" lon="-0.35794">
        <ele>43.88</ele>
        <time>2015-12-13T09:16:25Z</time>
      </trkpt>
      <trkpt lat="44.84843" lon="-0.35789">
        <ele>44.36</ele>
        <time>2015-12-13T09:16:28Z</time>
      </trkpt>
      <trkpt lat="44.84853" lon="-0.35771">
        <ele>44.84</ele>
        <time>2015-12-13T09:16:41Z</time>
      </trkpt>
      <trkpt lat="44.84862" lon="-0.35752">
        <ele>45.32</ele>
        <time>2015-12-13T09:16:54Z</time>
      </trkpt>
      <trkpt lat="44.84867" lon="-0.35737">
        <ele>46.28</ele>
        <time>2015-12-13T09:17:07Z</time>
      </trkpt>
      <trkpt lat="44.84871" lon="-0.35735">
        <ele>46.76</ele>
        <time>2015-12-13T09:17:18Z</time>
      </trkpt>
      <trkpt lat="44.84874" lon="-0.35735">
        <ele>46.76</ele>
        <time>2015-12-13T09:17:41Z</time>
      </trkpt>
      <trkpt lat="44.84875" lon="-0.35736">
        <ele>46.76</ele>
        <time>2015-12-13T09:17:54Z</time>
      </trkpt>
      <trkpt lat="44.84875" lon="-0.35735">
        <ele>46.28</ele>
        <time>2015-12-13T09:18:14Z</time>
      </trkpt>
      <trkpt lat="44.84875" lon="-0.35735">
        <ele>46.28</ele>
        <time>2015-12-13T09:18:32Z</time>
      </trkpt>
      <trkpt lat="44.84875" lon="-0.35738">
        <ele>46.28</ele>
        <time>2015-12-13T09:18:45Z</time>
      </trkpt>
      <trkpt lat="44.84885" lon="-0.35745">
        <ele>46.28</ele>
        <time>2015-12-13T09:19:00Z</time>
      </trkpt>
      <trkpt lat="44.84892" lon="-0.35749">
        <ele>46.28</ele>
        <time>2015-12-13T09:19:11Z</time>
      </trkpt>
      <trkpt lat="44.84909" lon="-0.35752">
        <ele>44.84</ele>
        <time>2015-12-13T09:19:27Z</time>
      </trkpt>
      <trkpt lat="44.84924" lon="-0.3574">
        <ele>44.84</ele>
        <time>2015-12-13T09:19:41Z</time>
      </trkpt>
      <trkpt lat="44.84938" lon="-0.35716">
        <ele>44.84</ele>
        <time>2015-12-13T09:19:59Z</time>
      </trkpt>
      <trkpt lat="44.84948" lon="-0.35694">
        <ele>44.36</ele>
        <time>2015-12-13T09:20:14Z</time>
      </trkpt>
      <trkpt lat="44.84949" lon="-0.35692">
        <ele>44.36</ele>
        <time>2015-12-13T09:20:15Z</time>
      </trkpt>
      <trkpt lat="44.84954" lon="-0.35669">
        <ele>43.4</ele>
        <time>2015-12-13T09:20:30Z</time>
      </trkpt>
      <trkpt lat="44.84953" lon="-0.35642">
        <ele>41.95</ele>
        <time>2015-12-13T09:20:45Z</time>
      </trkpt>
      <trkpt lat="44.84954" lon="-0.35634">
        <ele>41.47</ele>
        <time>2015-12-13T09:20:57Z</time>
      </trkpt>
      <trkpt lat="44.84956" lon="-0.35624">
        <ele>40.51</ele>
        <time>2015-12-13T09:21:11Z</time>
      </trkpt>
      <trkpt lat="44.84957" lon="-0.35621">
        <ele>40.51</ele>
        <time>2015-12-13T09:21:14Z</time>
      </trkpt>
      <trkpt lat="44.8496" lon="-0.35613">
        <ele>40.03</ele>
        <time>2015-12-13T09:21:21Z</time>
      </trkpt>
      <trkpt lat="44.84967" lon="-0.35599">
        <ele>39.07</ele>
        <time>2015-12-13T09:21:34Z</time>
      </trkpt>
      <trkpt lat="44.84976" lon="-0.35577">
        <ele>37.63</ele>
        <time>2015-12-13T09:21:53Z</time>
      </trkpt>
      <trkpt lat="44.84982" lon="-0.35565">
        <ele>37.63</ele>
        <time>2015-12-13T09:22:03Z</time>
      </trkpt>
      <trkpt lat="44.84987" lon="-0.35542">
        <ele>37.15</ele>
        <time>2015-12-13T09:22:18Z</time>
      </trkpt>
      <trkpt lat="44.84994" lon="-0.35517">
        <ele>36.19</ele>
        <time>2015-12-13T09:22:34Z</time>
      </trkpt>
      <trkpt lat="44.85001" lon="-0.35496">
        <ele>37.15</ele>
        <time>2015-12-13T09:22:46Z</time>
      </trkpt>
      <trkpt lat="44.85008" lon="-0.35473">
        <ele>38.59</ele>
        <time>2015-12-13T09:23:01Z</time>
      </trkpt>
      <trkpt lat="44.8502" lon="-0.35453">
        <ele>40.03</ele>
        <time>2015-12-13T09:23:16Z</time>
      </trkpt>
      <trkpt lat="44.85031" lon="-0.35431">
        <ele>40.99</ele>
        <time>2015-12-13T09:23:31Z</time>
      </trkpt>
      <trkpt lat="44.85041" lon="-0.35409">
        <ele>41.47</ele>
        <time>2015-12-13T09:23:46Z</time>
      </trkpt>
      <trkpt lat="44.85049" lon="-0.35387">
        <ele>41.95</ele>
        <time>2015-12-13T09:24:00Z</time>
      </trkpt>
      <trkpt lat="44.85057" lon="-0.35364">
        <ele>42.92</ele>
        <time>2015-12-13T09:24:14Z</time>
      </trkpt>
      <trkpt lat="44.85067" lon="-0.35339">
        <ele>43.88</ele>
        <time>2015-12-13T09:24:30Z</time>
      </trkpt>
      <trkpt lat="44.85077" lon="-0.35317">
        <ele>45.32</ele>
        <time>2015-12-13T09:24:45Z</time>
      </trkpt>
      <trkpt lat="44.85091" lon="-0.353">
        <ele>46.76</ele>
        <time>2015-12-13T09:25:00Z</time>
      </trkpt>
      <trkpt lat="44.85108" lon="-0.35282">
        <ele>46.76</ele>
        <time>2015-12-13T09:25:16Z</time>
      </trkpt>
      <trkpt lat="44.85122" lon="-0.3527">
        <ele>46.76</ele>
        <time>2015-12-13T09:25:28Z</time>
      </trkpt>
      <trkpt lat="44.85128" lon="-0.35264">
        <ele>45.8</ele>
        <time>2015-12-13T09:25:34Z</time>
      </trkpt>
      <trkpt lat="44.85142" lon="-0.3525">
        <ele>44.84</ele>
        <time>2015-12-13T09:25:47Z</time>
      </trkpt>
      <trkpt lat="44.85147" lon="-0.35243">
        <ele>43.88</ele>
        <time>2015-12-13T09:25:53Z</time>
      </trkpt>
      <trkpt lat="44.85155" lon="-0.35214">
        <ele>43.88</ele>
        <time>2015-12-13T09:26:10Z</time>
      </trkpt>
      <trkpt lat="44.85163" lon="-0.35187">
        <ele>43.88</ele>
        <time>2015-12-13T09:26:26Z</time>
      </trkpt>
      <trkpt lat="44.85173" lon="-0.35156">
        <ele>44.36</ele>
        <time>2015-12-13T09:26:44Z</time>
      </trkpt>
      <trkpt lat="44.85181" lon="-0.35131">
        <ele>45.32</ele>
        <time>2015-12-13T09:27:00Z</time>
      </trkpt>
      <trkpt lat="44.85188" lon="-0.35109">
        <ele>46.76</ele>
        <time>2015-12-13T09:27:13Z</time>
      </trkpt>
      <trkpt lat="44.85192" lon="-0.35097">
        <ele>47.24</ele>
        <time>2015-12-13T09:27:21Z</time>
      </trkpt>
      <trkpt lat="44.85196" lon="-0.35073">
        <ele>48.2</ele>
        <time>2015-12-13T09:27:36Z</time>
      </trkpt>
      <trkpt lat="44.85199" lon="-0.35051">
        <ele>48.2</ele>
        <time>2015-12-13T09:27:49Z</time>
      </trkpt>
      <trkpt lat="44.85192" lon="-0.35026">
        <ele>48.2</ele>
        <time>2015-12-13T09:28:05Z</time>
      </trkpt>
      <trkpt lat="44.85179" lon="-0.35006">
        <ele>48.68</ele>
        <time>2015-12-13T09:28:21Z</time>
      </trkpt>
      <trkpt lat="44.85165" lon="-0.34988">
        <ele>48.68</ele>
        <time>2015-12-13T09:28:36Z</time>
      </trkpt>
      <trkpt lat="44.85149" lon="-0.34971">
        <ele>48.68</ele>
        <time>2015-12-13T09:28:51Z</time>
      </trkpt>
      <trkpt lat="44.85131" lon="-0.34957">
        <ele>48.68</ele>
        <time>2015-12-13T09:29:08Z</time>
      </trkpt>
      <trkpt lat="44.85114" lon="-0.34945">
        <ele>49.65</ele>
        <time>2015-12-13T09:29:24Z</time>
      </trkpt>
      <trkpt lat="44.85103" lon="-0.34936">
        <ele>49.65</ele>
        <time>2015-12-13T09:29:37Z</time>
      </trkpt>
      <trkpt lat="44.85092" lon="-0.34921">
        <ele>49.65</ele>
        <time>2015-12-13T09:29:50Z</time>
      </trkpt>
      <trkpt lat="44.85077" lon="-0.34905">
        <ele>49.65</ele>
        <time>2015-12-13T09:30:05Z</time>
      </trkpt>
      <trkpt lat="44.85058" lon="-0.34885">
        <ele>49.65</ele>
        <time>2015-12-13T09:30:23Z</time>
      </trkpt>
      <trkpt lat="44.85042" lon="-0.34867">
        <ele>49.65</ele>
        <time>2015-12-13T09:30:39Z</time>
      </trkpt>
      <trkpt lat="44.8503" lon="-0.34844">
        <ele>49.65</ele>
        <time>2015-12-13T09:30:55Z</time>
      </trkpt>
      <trkpt lat="44.8502" lon="-0.34818">
        <ele>50.13</ele>
        <time>2015-12-13T09:31:11Z</time>
      </trkpt>
      <trkpt lat="44.85012" lon="-0.34801">
        <ele>48.68</ele>
        <time>2015-12-13T09:31:22Z</time>
      </trkpt>
      <trkpt lat="44.85003" lon="-0.3478">
        <ele>48.68</ele>
        <time>2015-12-13T09:31:36Z</time>
      </trkpt>
      <trkpt lat="44.84997" lon="-0.3476">
        <ele>48.68</ele>
        <time>2015-12-13T09:31:50Z</time>
      </trkpt>
      <trkpt lat="44.84995" lon="-0.34755">
        <ele>48.68</ele>
        <time>2015-12-13T09:32:00Z</time>
      </trkpt>
      <trkpt lat="44.84995" lon="-0.34756">
        <ele>48.68</ele>
        <time>2015-12-13T09:32:19Z</time>
      </trkpt>
      <trkpt lat="44.84995" lon="-0.34752">
        <ele>48.68</ele>
        <time>2015-12-13T09:32:46Z</time>
      </trkpt>
      <trkpt lat="44.84995" lon="-0.34753">
        <ele>48.68</ele>
        <time>2015-12-13T09:33:07Z</time>
      </trkpt>
      <trkpt lat="44.84994" lon="-0.3475">
        <ele>48.68</ele>
        <time>2015-12-13T09:33:27Z</time>
      </trkpt>
      <trkpt lat="44.84987" lon="-0.34732">
        <ele>47.72</ele>
        <time>2015-12-13T09:33:41Z</time>
      </trkpt>
      <trkpt lat="44.84977" lon="-0.3471">
        <ele>47.24</ele>
        <time>2015-12-13T09:33:57Z</time>
      </trkpt>
      <trkpt lat="44.84966" lon="-0.34689">
        <ele>45.8</ele>
        <time>2015-12-13T09:34:12Z</time>
      </trkpt>
      <trkpt lat="44.84955" lon="-0.34665">
        <ele>44.84</ele>
        <time>2015-12-13T09:34:28Z</time>
      </trkpt>
      <trkpt lat="44.84944" lon="-0.34643">
        <ele>44.84</ele>
        <time>2015-12-13T09:34:43Z</time>
      </trkpt>
      <trkpt lat="44.84933" lon="-0.34621">
        <ele>44.84</ele>
        <time>2015-12-13T09:34:58Z</time>
      </trkpt>
      <trkpt lat="44.84923" lon="-0.346">
        <ele>44.84</ele>
        <time>2015-12-13T09:35:13Z</time>
      </trkpt>
      <trkpt lat="44.84914" lon="-0.3458">
        <ele>43.88</ele>
        <time>2015-12-13T09:35:27Z</time>
      </trkpt>
      <trkpt lat="44.8491" lon="-0.34569">
        <ele>43.88</ele>
        <time>2015-12-13T09:35:40Z</time>
      </trkpt>
      <trkpt lat="44.84902" lon="-0.34552">
        <ele>43.88</ele>
        <time>2015-12-13T09:35:53Z</time>
      </trkpt>
      <trkpt lat="44.84891" lon="-0.34533">
        <ele>43.88</ele>
        <time>2015-12-13T09:36:07Z</time>
      </trkpt>
      <trkpt lat="44.84881" lon="-0.34511">
        <ele>43.88</ele>
        <time>2015-12-13T09:36:22Z</time>
      </trkpt>
      <trkpt lat="44.84871" lon="-0.34488">
        <ele>45.32</ele>
        <time>2015-12-13T09:36:37Z</time>
      </trkpt>
      <trkpt lat="44.84861" lon="-0.34466">
        <ele>44.84</ele>
        <time>2015-12-13T09:36:52Z</time>
      </trkpt>
      <trkpt lat="44.84851" lon="-0.34445">
        <ele>45.32</ele>
        <time>2015-12-13T09:37:06Z</time>
      </trkpt>
      <trkpt lat="44.8484" lon="-0.34421">
        <ele>44.84</ele>
        <time>2015-12-13T09:37:22Z</time>
      </trkpt>
      <trkpt lat="44.8483" lon="-0.34401">
        <ele>44.84</ele>
        <time>2015-12-13T09:37:36Z</time>
      </trkpt>
      <trkpt lat="44.84821" lon="-0.34376">
        <ele>45.32</ele>
        <time>2015-12-13T09:37:52Z</time>
      </trkpt>
      <trkpt lat="44.84819" lon="-0.34371">
        <ele>45.8</ele>
        <time>2015-12-13T09:38:01Z</time>
      </trkpt>
      <trkpt lat="44.84821" lon="-0.3436">
        <ele>45.8</ele>
        <time>2015-12-13T09:38:15Z</time>
      </trkpt>
      <trkpt lat="44.84813" lon="-0.34359">
        <ele>45.8</ele>
        <time>2015-12-13T09:38:28Z</time>
      </trkpt>
      <trkpt lat="44.84813" lon="-0.34356">
        <ele>45.8</ele>
        <time>2015-12-13T09:38:42Z</time>
      </trkpt>
      <trkpt lat="44.84812" lon="-0.34352">
        <ele>46.28</ele>
        <time>2015-12-13T09:38:55Z</time>
      </trkpt>
      <trkpt lat="44.84813" lon="-0.34354">
        <ele>46.28</ele>
        <time>2015-12-13T09:39:13Z</time>
      </trkpt>
      <trkpt lat="44.84813" lon="-0.34358">
        <ele>46.28</ele>
        <time>2015-12-13T09:39:32Z</time>
      </trkpt>
      <trkpt lat="44.8481" lon="-0.34353">
        <ele>46.28</ele>
        <time>2015-12-13T09:39:46Z</time>
      </trkpt>
      <trkpt lat="44.84809" lon="-0.34351">
        <ele>46.28</ele>
        <time>2015-12-13T09:40:11Z</time>
      </trkpt>
      <trkpt lat="44.84808" lon="-0.34353">
        <ele>46.28</ele>
        <time>2015-12-13T09:40:27Z</time>
      </trkpt>
      <trkpt lat="44.8481" lon="-0.34353">
        <ele>46.28</ele>
        <time>2015-12-13T09:40:40Z</time>
      </trkpt>
      <trkpt lat="44.848" lon="-0.34339">
        <ele>46.76</ele>
        <time>2015-12-13T09:40:53Z</time>
      </trkpt>
      <trkpt lat="44.84796" lon="-0.3433">
        <ele>46.76</ele>
        <time>2015-12-13T09:41:07Z</time>
      </trkpt>
      <trkpt lat="44.84794" lon="-0.34327">
        <ele>46.28</ele>
        <time>2015-12-13T09:41:15Z</time>
      </trkpt>
      <trkpt lat="44.84795" lon="-0.34309">
        <ele>46.28</ele>
        <time>2015-12-13T09:41:27Z</time>
      </trkpt>
      <trkpt lat="44.84802" lon="-0.34303">
        <ele>46.28</ele>
        <time>2015-12-13T09:41:39Z</time>
      </trkpt>
      <trkpt lat="44.84803" lon="-0.34302">
        <ele>46.76</ele>
        <time>2015-12-13T09:41:45Z</time>
      </trkpt>
      <trkpt lat="44.84797" lon="-0.34297">
        <ele>46.76</ele>
        <time>2015-12-13T09:41:50Z</time>
      </trkpt>
      <trkpt lat="44.84782" lon="-0.34281">
        <ele>46.76</ele>
        <time>2015-12-13T09:42:03Z</time>
      </trkpt>
      <trkpt lat="44.84776" lon="-0.34277">
        <ele>46.76</ele>
        <time>2015-12-13T09:42:08Z</time>
      </trkpt>
      <trkpt lat="44.84768" lon="-0.34271">
        <ele>47.72</ele>
        <time>2015-12-13T09:42:16Z</time>
      </trkpt>
      <trkpt lat="44.84763" lon="-0.34277">
        <ele>47.72</ele>
        <time>2015-12-13T09:42:32Z</time>
      </trkpt>
      <trkpt lat="44.84761" lon="-0.34279">
        <ele>47.72</ele>
        <time>2015-12-13T09:42:34Z</time>
      </trkpt>
      <trkpt lat="44.84752" lon="-0.34271">
        <ele>48.2</ele>
        <time>2015-12-13T09:42:44Z</time>
      </trkpt>
      <trkpt lat="44.8475" lon="-0.34267">
        <ele>48.2</ele>
        <time>2015-12-13T09:42:47Z</time>
      </trkpt>
      <trkpt lat="44.84748" lon="-0.34263">
        <ele>48.2</ele>
        <time>2015-12-13T09:42:50Z</time>
      </trkpt>
      <trkpt lat="44.84746" lon="-0.34259">
        <ele>48.2</ele>
        <time>2015-12-13T09:42:53Z</time>
      </trkpt>
      <trkpt lat="44.84741" lon="-0.34249">
        <ele>48.68</ele>
        <time>2015-12-13T09:43:00Z</time>
      </trkpt>
      <trkpt lat="44.84737" lon="-0.3424">
        <ele>48.68</ele>
        <time>2015-12-13T09:43:06Z</time>
      </trkpt>
      <trkpt lat="44.84731" lon="-0.34238">
        <ele>48.68</ele>
        <time>2015-12-13T09:43:11Z</time>
      </trkpt>
      <trkpt lat="44.84719" lon="-0.3424">
        <ele>49.65</ele>
        <time>2015-12-13T09:43:21Z</time>
      </trkpt>
      <trkpt lat="44.84714" lon="-0.34241">
        <ele>50.61</ele>
        <time>2015-12-13T09:43:36Z</time>
      </trkpt>
      <trkpt lat="44.84717" lon="-0.3424">
        <ele>50.61</ele>
        <time>2015-12-13T09:43:47Z</time>
      </trkpt>
      <trkpt lat="44.84718" lon="-0.3424">
        <ele>50.13</ele>
        <time>2015-12-13T09:43:59Z</time>
      </trkpt>
      <trkpt lat="44.84719" lon="-0.34239">
        <ele>50.13</ele>
        <time>2015-12-13T09:44:11Z</time>
      </trkpt>
      <trkpt lat="44.84718" lon="-0.34238">
        <ele>50.13</ele>
        <time>2015-12-13T09:44:33Z</time>
      </trkpt>
      <trkpt lat="44.84718" lon="-0.34237">
        <ele>50.13</ele>
        <time>2015-12-13T09:44:59Z</time>
      </trkpt>
      <trkpt lat="44.8472" lon="-0.34235">
        <ele>49.16</ele>
        <time>2015-12-13T09:45:26Z</time>
      </trkpt>
      <trkpt lat="44.84719" lon="-0.34238">
        <ele>48.68</ele>
        <time>2015-12-13T09:45:55Z</time>
      </trkpt>
      <trkpt lat="44.84719" lon="-0.34238">
        <ele>48.68</ele>
        <time>2015-12-13T09:46:30Z</time>
      </trkpt>
      <trkpt lat="44.8472" lon="-0.34241">
        <ele>48.68</ele>
        <time>2015-12-13T09:46:52Z</time>
      </trkpt>
      <trkpt lat="44.84721" lon="-0.34238">
        <ele>48.68</ele>
        <time>2015-12-13T09:47:00Z</time>
      </trkpt>
      <trkpt lat="44.8472" lon="-0.34233">
        <ele>48.68</ele>
        <time>2015-12-13T09:47:13Z</time>
      </trkpt>
      <trkpt lat="44.8472" lon="-0.34234">
        <ele>48.68</ele>
        <time>2015-12-13T09:47:21Z</time>
      </trkpt>
      <trkpt lat="44.84723" lon="-0.34234">
        <ele>48.68</ele>
        <time>2015-12-13T09:47:24Z</time>
      </trkpt>
      <trkpt lat="44.8474" lon="-0.34227">
        <ele>47.72</ele>
        <time>2015-12-13T09:47:40Z</time>
      </trkpt>
      <trkpt lat="44.84742" lon="-0.34226">
        <ele>47.72</ele>
        <time>2015-12-13T09:47:42Z</time>
      </trkpt>
      <trkpt lat="44.84756" lon="-0.34213">
        <ele>47.24</ele>
        <time>2015-12-13T09:47:57Z</time>
      </trkpt>
      <trkpt lat="44.84771" lon="-0.34205">
        <ele>46.76</ele>
        <time>2015-12-13T09:48:10Z</time>
      </trkpt>
      <trkpt lat="44.84781" lon="-0.34204">
        <ele>46.76</ele>
        <time>2015-12-13T09:48:19Z</time>
      </trkpt>
      <trkpt lat="44.8479" lon="-0.3422">
        <ele>46.76</ele>
        <time>2015-12-13T09:48:34Z</time>
      </trkpt>
      <trkpt lat="44.84794" lon="-0.34228">
        <ele>46.76</ele>
        <time>2015-12-13T09:48:45Z</time>
      </trkpt>
      <trkpt lat="44.84803" lon="-0.34246">
        <ele>46.28</ele>
        <time>2015-12-13T09:48:59Z</time>
      </trkpt>
      <trkpt lat="44.84812" lon="-0.34263">
        <ele>45.32</ele>
        <time>2015-12-13T09:49:13Z</time>
      </trkpt>
      <trkpt lat="44.84821" lon="-0.34281">
        <ele>44.84</ele>
        <time>2015-12-13T09:49:29Z</time>
      </trkpt>
      <trkpt lat="44.84836" lon="-0.34297">
        <ele>43.88</ele>
        <time>2015-12-13T09:49:46Z</time>
      </trkpt>
      <trkpt lat="44.84838" lon="-0.34298">
        <ele>43.88</ele>
        <time>2015-12-13T09:50:04Z</time>
      </trkpt>
      <trkpt lat="44.84839" lon="-0.34297">
        <ele>43.88</ele>
        <time>2015-12-13T09:50:18Z</time>
      </trkpt>
      <trkpt lat="44.8484" lon="-0.34297">
        <ele>43.88</ele>
        <time>2015-12-13T09:50:20Z</time>
      </trkpt>
      <trkpt lat="44.84848" lon="-0.3428">
        <ele>43.88</ele>
        <time>2015-12-13T09:50:32Z</time>
      </trkpt>
      <trkpt lat="44.84857" lon="-0.3426">
        <ele>43.88</ele>
        <time>2015-12-13T09:50:46Z</time>
      </trkpt>
      <trkpt lat="44.84867" lon="-0.34238">
        <ele>43.4</ele>
        <time>2015-12-13T09:51:01Z</time>
      </trkpt>
      <trkpt lat="44.84878" lon="-0.34214">
        <ele>43.4</ele>
        <time>2015-12-13T09:51:18Z</time>
      </trkpt>
      <trkpt lat="44.8488" lon="-0.34202">
        <ele>43.4</ele>
        <time>2015-12-13T09:51:26Z</time>
      </trkpt>
      <trkpt lat="44.84885" lon="-0.34201">
        <ele>43.4</ele>
        <time>2015-12-13T09:51:30Z</time>
      </trkpt>
      <trkpt lat="44.84895" lon="-0.3418">
        <ele>42.92</ele>
        <time>2015-12-13T09:51:45Z</time>
      </trkpt>
      <trkpt lat="44.84897" lon="-0.34176">
        <ele>42.92</ele>
        <time>2015-12-13T09:51:48Z</time>
      </trkpt>
      <trkpt lat="44.84908" lon="-0.34175">
        <ele>42.44</ele>
        <time>2015-12-13T09:52:01Z</time>
      </trkpt>
      <trkpt lat="44.8491" lon="-0.34172">
        <ele>41.95</ele>
        <time>2015-12-13T09:52:09Z</time>
      </trkpt>
      <trkpt lat="44.84915" lon="-0.34177">
        <ele>41.95</ele>
        <time>2015-12-13T09:52:15Z</time>
      </trkpt>
      <trkpt lat="44.84934" lon="-0.34184">
        <ele>41.95</ele>
        <time>2015-12-13T09:52:30Z</time>
      </trkpt>
      <trkpt lat="44.84951" lon="-0.3419">
        <ele>41.95</ele>
        <time>2015-12-13T09:52:44Z</time>
      </trkpt>
      <trkpt lat="44.84968" lon="-0.34198">
        <ele>41.95</ele>
        <time>2015-12-13T09:52:58Z</time>
      </trkpt>
      <trkpt lat="44.84972" lon="-0.34199">
        <ele>41.95</ele>
        <time>2015-12-13T09:53:01Z</time>
      </trkpt>
      <trkpt lat="44.84976" lon="-0.34202">
        <ele>41.95</ele>
        <time>2015-12-13T09:53:05Z</time>
      </trkpt>
      <trkpt lat="44.84995" lon="-0.34209">
        <ele>41.95</ele>
        <time>2015-12-13T09:53:20Z</time>
      </trkpt>
      <trkpt lat="44.85018" lon="-0.34215">
        <ele>41.95</ele>
        <time>2015-12-13T09:53:37Z</time>
      </trkpt>
      <trkpt lat="44.85036" lon="-0.34221">
        <ele>41.95</ele>
        <time>2015-12-13T09:53:51Z</time>
      </trkpt>
      <trkpt lat="44.85053" lon="-0.34227">
        <ele>41.95</ele>
        <time>2015-12-13T09:54:05Z</time>
      </trkpt>
      <trkpt lat="44.85073" lon="-0.34233">
        <ele>41.95</ele>
        <time>2015-12-13T09:54:20Z</time>
      </trkpt>
      <trkpt lat="44.85084" lon="-0.34235">
        <ele>41.95</ele>
        <time>2015-12-13T09:54:29Z</time>
      </trkpt>
      <trkpt lat="44.8509" lon="-0.34238">
        <ele>41.95</ele>
        <time>2015-12-13T09:54:34Z</time>
      </trkpt>
      <trkpt lat="44.85108" lon="-0.34244">
        <ele>41.95</ele>
        <time>2015-12-13T09:54:49Z</time>
      </trkpt>
      <trkpt lat="44.85127" lon="-0.34251">
        <ele>41.95</ele>
        <time>2015-12-13T09:55:04Z</time>
      </trkpt>
      <trkpt lat="44.85145" lon="-0.34259">
        <ele>41.95</ele>
        <time>2015-12-13T09:55:18Z</time>
      </trkpt>
      <trkpt lat="44.85165" lon="-0.34266">
        <ele>41.95</ele>
        <time>2015-12-13T09:55:33Z</time>
      </trkpt>
      <trkpt lat="44.85185" lon="-0.34272">
        <ele>41.95</ele>
        <time>2015-12-13T09:55:49Z</time>
      </trkpt>
      <trkpt lat="44.85202" lon="-0.34278">
        <ele>41.95</ele>
        <time>2015-12-13T09:56:03Z</time>
      </trkpt>
      <trkpt lat="44.85219" lon="-0.34284">
        <ele>41.95</ele>
        <time>2015-12-13T09:56:17Z</time>
      </trkpt>
      <trkpt lat="44.85241" lon="-0.3429">
        <ele>41.95</ele>
        <time>2015-12-13T09:56:34Z</time>
      </trkpt>
      <trkpt lat="44.85257" lon="-0.34296">
        <ele>41.95</ele>
        <time>2015-12-13T09:56:47Z</time>
      </trkpt>
      <trkpt lat="44.85263" lon="-0.34298">
        <ele>41.95</ele>
        <time>2015-12-13T09:56:54Z</time>
      </trkpt>
      <trkpt lat="44.85268" lon="-0.34303">
        <ele>41.95</ele>
        <time>2015-12-13T09:56:59Z</time>
      </trkpt>
      <trkpt lat="44.85282" lon="-0.34316">
        <ele>41.95</ele>
        <time>2015-12-13T09:57:12Z</time>
      </trkpt>
      <trkpt lat="44.85296" lon="-0.34336">
        <ele>41.95</ele>
        <time>2015-12-13T09:57:27Z</time>
      </trkpt>
      <trkpt lat="44.85303" lon="-0.34346">
        <ele>41.95</ele>
        <time>2015-12-13T09:57:35Z</time>
      </trkpt>
      <trkpt lat="44.85319" lon="-0.34367">
        <ele>41.95</ele>
        <time>2015-12-13T09:57:51Z</time>
      </trkpt>
      <trkpt lat="44.85332" lon="-0.34387">
        <ele>41.95</ele>
        <time>2015-12-13T09:58:06Z</time>
      </trkpt>
      <trkpt lat="44.85344" lon="-0.34404">
        <ele>41.95</ele>
        <time>2015-12-13T09:58:19Z</time>
      </trkpt>
      <trkpt lat="44.85356" lon="-0.34425">
        <ele>41.95</ele>
        <time>2015-12-13T09:58:33Z</time>
      </trkpt>
      <trkpt lat="44.85366" lon="-0.34444">
        <ele>41.95</ele>
        <time>2015-12-13T09:58:47Z</time>
      </trkpt>
      <trkpt lat="44.85377" lon="-0.34465">
        <ele>42.92</ele>
        <time>2015-12-13T09:59:02Z</time>
      </trkpt>
      <trkpt lat="44.85388" lon="-0.34483">
        <ele>44.36</ele>
        <time>2015-12-13T09:59:16Z</time>
      </trkpt>
      <trkpt lat="44.85398" lon="-0.34498">
        <ele>44.84</ele>
        <time>2015-12-13T09:59:28Z</time>
      </trkpt>
      <trkpt lat="44.85406" lon="-0.34512">
        <ele>45.32</ele>
        <time>2015-12-13T09:59:39Z</time>
      </trkpt>
      <trkpt lat="44.85417" lon="-0.34529">
        <ele>46.28</ele>
        <time>2015-12-13T09:59:53Z</time>
      </trkpt>
      <trkpt lat="44.85427" lon="-0.34547">
        <ele>46.28</ele>
        <time>2015-12-13T10:00:07Z</time>
      </trkpt>
      <trkpt lat="44.85433" lon="-0.34554">
        <ele>46.76</ele>
        <time>2015-12-13T10:00:13Z</time>
      </trkpt>
      <trkpt lat="44.85447" lon="-0.34554">
        <ele>47.24</ele>
        <time>2015-12-13T10:00:25Z</time>
      </trkpt>
      <trkpt lat="44.85452" lon="-0.34552">
        <ele>47.72</ele>
        <time>2015-12-13T10:00:29Z</time>
      </trkpt>
      <trkpt lat="44.85464" lon="-0.34541">
        <ele>48.2</ele>
        <time>2015-12-13T10:00:41Z</time>
      </trkpt>
      <trkpt lat="44.85478" lon="-0.3453">
        <ele>49.16</ele>
        <time>2015-12-13T10:00:54Z</time>
      </trkpt>
      <trkpt lat="44.85492" lon="-0.34522">
        <ele>49.65</ele>
        <time>2015-12-13T10:01:07Z</time>
      </trkpt>
      <trkpt lat="44.85507" lon="-0.34516">
        <ele>50.61</ele>
        <time>2015-12-13T10:01:21Z</time>
      </trkpt>
      <trkpt lat="44.85521" lon="-0.34511">
        <ele>51.09</ele>
        <time>2015-12-13T10:01:34Z</time>
      </trkpt>
      <trkpt lat="44.85533" lon="-0.34506">
        <ele>52.53</ele>
        <time>2015-12-13T10:01:49Z</time>
      </trkpt>
      <trkpt lat="44.85532" lon="-0.34504">
        <ele>52.05</ele>
        <time>2015-12-13T10:02:09Z</time>
      </trkpt>
      <trkpt lat="44.85532" lon="-0.34501">
        <ele>52.05</ele>
        <time>2015-12-13T10:02:25Z</time>
      </trkpt>
      <trkpt lat="44.85532" lon="-0.345">
        <ele>52.05</ele>
        <time>2015-12-13T10:02:47Z</time>
      </trkpt>
      <trkpt lat="44.85533" lon="-0.345">
        <ele>52.53</ele>
        <time>2015-12-13T10:03:03Z</time>
      </trkpt>
      <trkpt lat="44.85532" lon="-0.345">
        <ele>52.53</ele>
        <time>2015-12-13T10:03:26Z</time>
      </trkpt>
      <trkpt lat="44.85531" lon="-0.34494">
        <ele>52.53</ele>
        <time>2015-12-13T10:03:55Z</time>
      </trkpt>
      <trkpt lat="44.85532" lon="-0.34493">
        <ele>52.53</ele>
        <time>2015-12-13T10:04:24Z</time>
      </trkpt>
      <trkpt lat="44.8553" lon="-0.3449">
        <ele>52.53</ele>
        <time>2015-12-13T10:04:53Z</time>
      </trkpt>
      <trkpt lat="44.85529" lon="-0.34489">
        <ele>52.53</ele>
        <time>2015-12-13T10:05:17Z</time>
      </trkpt>
      <trkpt lat="44.85529" lon="-0.34492">
        <ele>52.53</ele>
        <time>2015-12-13T10:05:52Z</time>
      </trkpt>
      <trkpt lat="44.85531" lon="-0.34501">
        <ele>53.01</ele>
        <time>2015-12-13T10:06:16Z</time>
      </trkpt>
      <trkpt lat="44.85531" lon="-0.34501">
        <ele>53.01</ele>
        <time>2015-12-13T10:06:42Z</time>
      </trkpt>
      <trkpt lat="44.85532" lon="-0.34503">
        <ele>53.01</ele>
        <time>2015-12-13T10:07:07Z</time>
      </trkpt>
      <trkpt lat="44.85531" lon="-0.34502">
        <ele>53.01</ele>
        <time>2015-12-13T10:07:23Z</time>
      </trkpt>
      <trkpt lat="44.85531" lon="-0.34499">
        <ele>53.01</ele>
        <time>2015-12-13T10:07:54Z</time>
      </trkpt>
      <trkpt lat="44.8553" lon="-0.34502">
        <ele>53.01</ele>
        <time>2015-12-13T10:08:18Z</time>
      </trkpt>
      <trkpt lat="44.85531" lon="-0.34502">
        <ele>53.01</ele>
        <time>2015-12-13T10:08:36Z</time>
      </trkpt>
      <trkpt lat="44.85536" lon="-0.34507">
        <ele>53.01</ele>
        <time>2015-12-13T10:08:48Z</time>
      </trkpt>
      <trkpt lat="44.85539" lon="-0.3451">
        <ele>53.01</ele>
        <time>2015-12-13T10:09:00Z</time>
      </trkpt>
      <trkpt lat="44.85541" lon="-0.34514">
        <ele>51.57</ele>
        <time>2015-12-13T10:09:15Z</time>
      </trkpt>
      <trkpt lat="44.85541" lon="-0.34515">
        <ele>51.57</ele>
        <time>2015-12-13T10:09:53Z</time>
      </trkpt>
      <trkpt lat="44.85539" lon="-0.34512">
        <ele>51.57</ele>
        <time>2015-12-13T10:10:22Z</time>
      </trkpt>
      <trkpt lat="44.8554" lon="-0.34508">
        <ele>51.57</ele>
        <time>2015-12-13T10:10:25Z</time>
      </trkpt>
      <trkpt lat="44.85535" lon="-0.34502">
        <ele>53.01</ele>
        <time>2015-12-13T10:10:34Z</time>
      </trkpt>
      <trkpt lat="44.85533" lon="-0.345">
        <ele>53.01</ele>
        <time>2015-12-13T10:10:48Z</time>
      </trkpt>
      <trkpt lat="44.85529" lon="-0.34501">
        <ele>51.57</ele>
        <time>2015-12-13T10:10:56Z</time>
      </trkpt>
      <trkpt lat="44.85529" lon="-0.345">
        <ele>51.57</ele>
        <time>2015-12-13T10:11:12Z</time>
      </trkpt>
      <trkpt lat="44.85526" lon="-0.34498">
        <ele>51.09</ele>
        <time>2015-12-13T10:11:24Z</time>
      </trkpt>
      <trkpt lat="44.85525" lon="-0.34497">
        <ele>51.09</ele>
        <time>2015-12-13T10:11:37Z</time>
      </trkpt>
      <trkpt lat="44.85524" lon="-0.34497">
        <ele>51.09</ele>
        <time>2015-12-13T10:11:58Z</time>
      </trkpt>
      <trkpt lat="44.85524" lon="-0.34499">
        <ele>51.09</ele>
        <time>2015-12-13T10:12:30Z</time>
      </trkpt>
      <trkpt lat="44.85524" lon="-0.34497">
        <ele>51.09</ele>
        <time>2015-12-13T10:12:52Z</time>
      </trkpt>
      <trkpt lat="44.85525" lon="-0.34498">
        <ele>51.09</ele>
        <time>2015-12-13T10:13:20Z</time>
      </trkpt>
      <trkpt lat="44.85524" lon="-0.34498">
        <ele>51.09</ele>
        <time>2015-12-13T10:13:43Z</time>
      </trkpt>
      <trkpt lat="44.85524" lon="-0.34496">
        <ele>51.09</ele>
        <time>2015-12-13T10:13:57Z</time>
      </trkpt>
      <trkpt lat="44.85522" lon="-0.34494">
        <ele>50.61</ele>
        <time>2015-12-13T10:14:28Z</time>
      </trkpt>
      <trkpt lat="44.85521" lon="-0.34497">
        <ele>50.61</ele>
        <time>2015-12-13T10:14:52Z</time>
      </trkpt>
      <trkpt lat="44.85522" lon="-0.34498">
        <ele>50.61</ele>
        <time>2015-12-13T10:15:20Z</time>
      </trkpt>
      <trkpt lat="44.8552" lon="-0.34498">
        <ele>51.09</ele>
        <time>2015-12-13T10:15:56Z</time>
      </trkpt>
      <trkpt lat="44.8552" lon="-0.34498">
        <ele>51.09</ele>
        <time>2015-12-13T10:16:33Z</time>
      </trkpt>
      <trkpt lat="44.8552" lon="-0.34499">
        <ele>51.09</ele>
        <time>2015-12-13T10:17:07Z</time>
      </trkpt>
      <trkpt lat="44.85521" lon="-0.34498">
        <ele>51.09</ele>
        <time>2015-12-13T10:17:34Z</time>
      </trkpt>
      <trkpt lat="44.85522" lon="-0.34495">
        <ele>51.09</ele>
        <time>2015-12-13T10:17:56Z</time>
      </trkpt>
      <trkpt lat="44.85527" lon="-0.34495">
        <ele>51.09</ele>
        <time>2015-12-13T10:18:13Z</time>
      </trkpt>
      <trkpt lat="44.8553" lon="-0.34494">
        <ele>51.09</ele>
        <time>2015-12-13T10:18:30Z</time>
      </trkpt>
      <trkpt lat="44.85542" lon="-0.34485">
        <ele>51.09</ele>
        <time>2015-12-13T10:18:44Z</time>
      </trkpt>
      <trkpt lat="44.85549" lon="-0.34479">
        <ele>51.09</ele>
        <time>2015-12-13T10:18:56Z</time>
      </trkpt>
      <trkpt lat="44.85553" lon="-0.34477">
        <ele>51.09</ele>
        <time>2015-12-13T10:19:08Z</time>
      </trkpt>
      <trkpt lat="44.85562" lon="-0.34471">
        <ele>51.09</ele>
        <time>2015-12-13T10:19:20Z</time>
      </trkpt>
      <trkpt lat="44.85576" lon="-0.34463">
        <ele>50.61</ele>
        <time>2015-12-13T10:19:34Z</time>
      </trkpt>
      <trkpt lat="44.85587" lon="-0.34456">
        <ele>49.65</ele>
        <time>2015-12-13T10:19:46Z</time>
      </trkpt>
      <trkpt lat="44.85602" lon="-0.34447">
        <ele>48.68</ele>
        <time>2015-12-13T10:20:02Z</time>
      </trkpt>
      <trkpt lat="44.85617" lon="-0.34437">
        <ele>47.72</ele>
        <time>2015-12-13T10:20:17Z</time>
      </trkpt>
      <trkpt lat="44.85632" lon="-0.34428">
        <ele>46.76</ele>
        <time>2015-12-13T10:20:32Z</time>
      </trkpt>
      <trkpt lat="44.85646" lon="-0.34418">
        <ele>46.28</ele>
        <time>2015-12-13T10:20:46Z</time>
      </trkpt>
      <trkpt lat="44.8566" lon="-0.3441">
        <ele>45.32</ele>
        <time>2015-12-13T10:21:00Z</time>
      </trkpt>
      <trkpt lat="44.8567" lon="-0.34423">
        <ele>44.36</ele>
        <time>2015-12-13T10:21:13Z</time>
      </trkpt>
      <trkpt lat="44.85679" lon="-0.34442">
        <ele>44.36</ele>
        <time>2015-12-13T10:21:26Z</time>
      </trkpt>
      <trkpt lat="44.85686" lon="-0.34461">
        <ele>44.36</ele>
        <time>2015-12-13T10:21:40Z</time>
      </trkpt>
      <trkpt lat="44.85694" lon="-0.34479">
        <ele>43.88</ele>
        <time>2015-12-13T10:21:53Z</time>
      </trkpt>
      <trkpt lat="44.85703" lon="-0.34494">
        <ele>43.4</ele>
        <time>2015-12-13T10:22:05Z</time>
      </trkpt>
      <trkpt lat="44.85709" lon="-0.34493">
        <ele>42.44</ele>
        <time>2015-12-13T10:22:10Z</time>
      </trkpt>
      <trkpt lat="44.85725" lon="-0.34481">
        <ele>40.99</ele>
        <time>2015-12-13T10:22:26Z</time>
      </trkpt>
      <trkpt lat="44.85738" lon="-0.34472">
        <ele>40.03</ele>
        <time>2015-12-13T10:22:39Z</time>
      </trkpt>
      <trkpt lat="44.85753" lon="-0.34462">
        <ele>39.07</ele>
        <time>2015-12-13T10:22:53Z</time>
      </trkpt>
      <trkpt lat="44.85769" lon="-0.34451">
        <ele>37.63</ele>
        <time>2015-12-13T10:23:08Z</time>
      </trkpt>
      <trkpt lat="44.85785" lon="-0.3444">
        <ele>36.19</ele>
        <time>2015-12-13T10:23:23Z</time>
      </trkpt>
      <trkpt lat="44.858" lon="-0.34429">
        <ele>34.74</ele>
        <time>2015-12-13T10:23:38Z</time>
      </trkpt>
      <trkpt lat="44.85811" lon="-0.34419">
        <ele>33.3</ele>
        <time>2015-12-13T10:23:51Z</time>
      </trkpt>
      <trkpt lat="44.85826" lon="-0.34409">
        <ele>32.34</ele>
        <time>2015-12-13T10:24:05Z</time>
      </trkpt>
      <trkpt lat="44.85834" lon="-0.34404">
        <ele>31.86</ele>
        <time>2015-12-13T10:24:20Z</time>
      </trkpt>
      <trkpt lat="44.85833" lon="-0.34405">
        <ele>31.86</ele>
        <time>2015-12-13T10:24:35Z</time>
      </trkpt>
      <trkpt lat="44.85834" lon="-0.34404">
        <ele>31.86</ele>
        <time>2015-12-13T10:24:49Z</time>
      </trkpt>
      <trkpt lat="44.85832" lon="-0.34403">
        <ele>31.86</ele>
        <time>2015-12-13T10:25:01Z</time>
      </trkpt>
      <trkpt lat="44.85829" lon="-0.344">
        <ele>31.86</ele>
        <time>2015-12-13T10:25:04Z</time>
      </trkpt>
      <trkpt lat="44.85824" lon="-0.34388">
        <ele>31.86</ele>
        <time>2015-12-13T10:25:16Z</time>
      </trkpt>
      <trkpt lat="44.85823" lon="-0.34387">
        <ele>31.86</ele>
        <time>2015-12-13T10:25:17Z</time>
      </trkpt>
      <trkpt lat="44.85813" lon="-0.34366">
        <ele>30.9</ele>
        <time>2015-12-13T10:25:34Z</time>
      </trkpt>
      <trkpt lat="44.85804" lon="-0.3435">
        <ele>30.42</ele>
        <time>2015-12-13T10:25:48Z</time>
      </trkpt>
      <trkpt lat="44.85793" lon="-0.34329">
        <ele>30.42</ele>
        <time>2015-12-13T10:26:04Z</time>
      </trkpt>
      <trkpt lat="44.85783" lon="-0.34313">
        <ele>30.42</ele>
        <time>2015-12-13T10:26:18Z</time>
      </trkpt>
      <trkpt lat="44.85774" lon="-0.34299">
        <ele>31.38</ele>
        <time>2015-12-13T10:26:32Z</time>
      </trkpt>
      <trkpt lat="44.85765" lon="-0.34286">
        <ele>32.82</ele>
        <time>2015-12-13T10:26:46Z</time>
      </trkpt>
      <trkpt lat="44.85761" lon="-0.34286">
        <ele>33.3</ele>
        <time>2015-12-13T10:27:05Z</time>
      </trkpt>
      <trkpt lat="44.85757" lon="-0.34275">
        <ele>33.3</ele>
        <time>2015-12-13T10:27:23Z</time>
      </trkpt>
      <trkpt lat="44.85748" lon="-0.3426">
        <ele>33.3</ele>
        <time>2015-12-13T10:27:36Z</time>
      </trkpt>
      <trkpt lat="44.85737" lon="-0.34238">
        <ele>33.3</ele>
        <time>2015-12-13T10:27:53Z</time>
      </trkpt>
      <trkpt lat="44.8573" lon="-0.34225">
        <ele>31.86</ele>
        <time>2015-12-13T10:28:03Z</time>
      </trkpt>
      <trkpt lat="44.85719" lon="-0.34209">
        <ele>31.86</ele>
        <time>2015-12-13T10:28:16Z</time>
      </trkpt>
      <trkpt lat="44.85718" lon="-0.34207">
        <ele>31.86</ele>
        <time>2015-12-13T10:28:18Z</time>
      </trkpt>
      <trkpt lat="44.85704" lon="-0.34206">
        <ele>31.38</ele>
        <time>2015-12-13T10:28:31Z</time>
      </trkpt>
      <trkpt lat="44.85686" lon="-0.34217">
        <ele>31.38</ele>
        <time>2015-12-13T10:28:45Z</time>
      </trkpt>
      <trkpt lat="44.85678" lon="-0.34221">
        <ele>32.82</ele>
        <time>2015-12-13T10:28:52Z</time>
      </trkpt>
      <trkpt lat="44.85674" lon="-0.34221">
        <ele>33.3</ele>
        <time>2015-12-13T10:28:55Z</time>
      </trkpt>
      <trkpt lat="44.85673" lon="-0.34216">
        <ele>32.82</ele>
        <time>2015-12-13T10:29:02Z</time>
      </trkpt>
      <trkpt lat="44.85684" lon="-0.342">
        <ele>31.86</ele>
        <time>2015-12-13T10:29:19Z</time>
      </trkpt>
      <trkpt lat="44.85687" lon="-0.34197">
        <ele>31.38</ele>
        <time>2015-12-13T10:29:23Z</time>
      </trkpt>
      <trkpt lat="44.85694" lon="-0.34192">
        <ele>30.9</ele>
        <time>2015-12-13T10:29:31Z</time>
      </trkpt>
      <trkpt lat="44.85696" lon="-0.3419">
        <ele>30.9</ele>
        <time>2015-12-13T10:29:33Z</time>
      </trkpt>
      <trkpt lat="44.85697" lon="-0.34189">
        <ele>30.9</ele>
        <time>2015-12-13T10:29:35Z</time>
      </trkpt>
      <trkpt lat="44.85703" lon="-0.34187">
        <ele>29.94</ele>
        <time>2015-12-13T10:29:50Z</time>
      </trkpt>
      <trkpt lat="44.85702" lon="-0.34187">
        <ele>29.94</ele>
        <time>2015-12-13T10:30:10Z</time>
      </trkpt>
      <trkpt lat="44.85701" lon="-0.34187">
        <ele>29.94</ele>
        <time>2015-12-13T10:30:31Z</time>
      </trkpt>
      <trkpt lat="44.85701" lon="-0.34189">
        <ele>29.94</ele>
        <time>2015-12-13T10:30:51Z</time>
      </trkpt>
      <trkpt lat="44.85703" lon="-0.34188">
        <ele>29.94</ele>
        <time>2015-12-13T10:31:05Z</time>
      </trkpt>
      <trkpt lat="44.85706" lon="-0.34195">
        <ele>29.46</ele>
        <time>2015-12-13T10:31:17Z</time>
      </trkpt>
      <trkpt lat="44.85705" lon="-0.34192">
        <ele>29.46</ele>
        <time>2015-12-13T10:31:31Z</time>
      </trkpt>
      <trkpt lat="44.85709" lon="-0.34187">
        <ele>29.46</ele>
        <time>2015-12-13T10:31:36Z</time>
      </trkpt>
      <trkpt lat="44.85722" lon="-0.34177">
        <ele>28.02</ele>
        <time>2015-12-13T10:31:49Z</time>
      </trkpt>
      <trkpt lat="44.85735" lon="-0.34166">
        <ele>26.57</ele>
        <time>2015-12-13T10:32:03Z</time>
      </trkpt>
      <trkpt lat="44.85748" lon="-0.34157">
        <ele>25.13</ele>
        <time>2015-12-13T10:32:18Z</time>
      </trkpt>
      <trkpt lat="44.85761" lon="-0.34149">
        <ele>23.69</ele>
        <time>2015-12-13T10:32:33Z</time>
      </trkpt>
      <trkpt lat="44.85767" lon="-0.34144">
        <ele>23.21</ele>
        <time>2015-12-13T10:32:40Z</time>
      </trkpt>
      <trkpt lat="44.85774" lon="-0.34136">
        <ele>22.73</ele>
        <time>2015-12-13T10:32:46Z</time>
      </trkpt>
      <trkpt lat="44.85792" lon="-0.34122">
        <ele>21.77</ele>
        <time>2015-12-13T10:33:02Z</time>
      </trkpt>
      <trkpt lat="44.85805" lon="-0.34109">
        <ele>21.77</ele>
        <time>2015-12-13T10:33:15Z</time>
      </trkpt>
      <trkpt lat="44.85821" lon="-0.34094">
        <ele>21.77</ele>
        <time>2015-12-13T10:33:30Z</time>
      </trkpt>
      <trkpt lat="44.85835" lon="-0.34088">
        <ele>23.21</ele>
        <time>2015-12-13T10:33:42Z</time>
      </trkpt>
      <trkpt lat="44.8585" lon="-0.3408">
        <ele>24.17</ele>
        <time>2015-12-13T10:33:58Z</time>
      </trkpt>
      <trkpt lat="44.85861" lon="-0.34064">
        <ele>25.61</ele>
        <time>2015-12-13T10:34:12Z</time>
      </trkpt>
      <trkpt lat="44.8587" lon="-0.34052">
        <ele>26.57</ele>
        <time>2015-12-13T10:34:22Z</time>
      </trkpt>
      <trkpt lat="44.85881" lon="-0.34032">
        <ele>28.5</ele>
        <time>2015-12-13T10:34:38Z</time>
      </trkpt>
      <trkpt lat="44.85889" lon="-0.34026">
        <ele>29.94</ele>
        <time>2015-12-13T10:34:51Z</time>
      </trkpt>
      <trkpt lat="44.85892" lon="-0.34032">
        <ele>29.94</ele>
        <time>2015-12-13T10:34:57Z</time>
      </trkpt>
      <trkpt lat="44.859" lon="-0.34048">
        <ele>28.5</ele>
        <time>2015-12-13T10:35:09Z</time>
      </trkpt>
      <trkpt lat="44.85906" lon="-0.34062">
        <ele>28.02</ele>
        <time>2015-12-13T10:35:20Z</time>
      </trkpt>
      <trkpt lat="44.85915" lon="-0.34077">
        <ele>27.05</ele>
        <time>2015-12-13T10:35:33Z</time>
      </trkpt>
      <trkpt lat="44.85923" lon="-0.34092">
        <ele>26.57</ele>
        <time>2015-12-13T10:35:46Z</time>
      </trkpt>
      <trkpt lat="44.85931" lon="-0.34109">
        <ele>26.09</ele>
        <time>2015-12-13T10:35:59Z</time>
      </trkpt>
      <trkpt lat="44.85932" lon="-0.34111">
        <ele>26.09</ele>
        <time>2015-12-13T10:36:01Z</time>
      </trkpt>
      <trkpt lat="44.8594" lon="-0.34122">
        <ele>25.13</ele>
        <time>2015-12-13T10:36:15Z</time>
      </trkpt>
      <trkpt lat="44.85948" lon="-0.34132">
        <ele>23.69</ele>
        <time>2015-12-13T10:36:28Z</time>
      </trkpt>
      <trkpt lat="44.85953" lon="-0.34138">
        <ele>22.73</ele>
        <time>2015-12-13T10:36:33Z</time>
      </trkpt>
      <trkpt lat="44.85964" lon="-0.34152">
        <ele>21.77</ele>
        <time>2015-12-13T10:36:47Z</time>
      </trkpt>
      <trkpt lat="44.85974" lon="-0.34164">
        <ele>20.81</ele>
        <time>2015-12-13T10:36:59Z</time>
      </trkpt>
      <trkpt lat="44.85986" lon="-0.34177">
        <ele>19.36</ele>
        <time>2015-12-13T10:37:12Z</time>
      </trkpt>
      <trkpt lat="44.85992" lon="-0.34182">
        <ele>19.36</ele>
        <time>2015-12-13T10:37:19Z</time>
      </trkpt>
      <trkpt lat="44.85995" lon="-0.34186">
        <ele>18.88</ele>
        <time>2015-12-13T10:37:23Z</time>
      </trkpt>
      <trkpt lat="44.86008" lon="-0.34192">
        <ele>17.92</ele>
        <time>2015-12-13T10:37:38Z</time>
      </trkpt>
      <trkpt lat="44.86009" lon="-0.34192">
        <ele>17.92</ele>
        <time>2015-12-13T10:37:56Z</time>
      </trkpt>
      <trkpt lat="44.86017" lon="-0.34183">
        <ele>17.92</ele>
        <time>2015-12-13T10:38:09Z</time>
      </trkpt>
      <trkpt lat="44.86029" lon="-0.34179">
        <ele>17.92</ele>
        <time>2015-12-13T10:38:23Z</time>
      </trkpt>
      <trkpt lat="44.86039" lon="-0.34182">
        <ele>17.92</ele>
        <time>2015-12-13T10:38:37Z</time>
      </trkpt>
      <trkpt lat="44.86053" lon="-0.34168">
        <ele>17.92</ele>
        <time>2015-12-13T10:38:52Z</time>
      </trkpt>
      <trkpt lat="44.86057" lon="-0.34163">
        <ele>19.84</ele>
        <time>2015-12-13T10:38:56Z</time>
      </trkpt>
      <trkpt lat="44.86072" lon="-0.34155">
        <ele>20.32</ele>
        <time>2015-12-13T10:39:10Z</time>
      </trkpt>
      <trkpt lat="44.86074" lon="-0.34154">
        <ele>18.88</ele>
        <time>2015-12-13T10:39:13Z</time>
      </trkpt>
      <trkpt lat="44.86076" lon="-0.34154">
        <ele>20.81</ele>
        <time>2015-12-13T10:39:15Z</time>
      </trkpt>
      <trkpt lat="44.8609" lon="-0.3415">
        <ele>20.81</ele>
        <time>2015-12-13T10:39:30Z</time>
      </trkpt>
      <trkpt lat="44.861" lon="-0.34139">
        <ele>22.25</ele>
        <time>2015-12-13T10:39:43Z</time>
      </trkpt>
      <trkpt lat="44.86102" lon="-0.34136">
        <ele>22.25</ele>
        <time>2015-12-13T10:39:46Z</time>
      </trkpt>
      <trkpt lat="44.86104" lon="-0.34131">
        <ele>22.73</ele>
        <time>2015-12-13T10:39:49Z</time>
      </trkpt>
      <trkpt lat="44.86113" lon="-0.34121">
        <ele>24.17</ele>
        <time>2015-12-13T10:40:03Z</time>
      </trkpt>
      <trkpt lat="44.86118" lon="-0.34123">
        <ele>22.73</ele>
        <time>2015-12-13T10:40:08Z</time>
      </trkpt>
      <trkpt lat="44.86129" lon="-0.34117">
        <ele>21.77</ele>
        <time>2015-12-13T10:40:21Z</time>
      </trkpt>
      <trkpt lat="44.8613" lon="-0.34116">
        <ele>21.77</ele>
        <time>2015-12-13T10:40:22Z</time>
      </trkpt>
      <trkpt lat="44.86133" lon="-0.34111">
        <ele>21.77</ele>
        <time>2015-12-13T10:40:26Z</time>
      </trkpt>
      <trkpt lat="44.86137" lon="-0.34103">
        <ele>21.29</ele>
        <time>2015-12-13T10:40:41Z</time>
      </trkpt>
      <trkpt lat="44.86147" lon="-0.3409">
        <ele>20.81</ele>
        <time>2015-12-13T10:40:55Z</time>
      </trkpt>
      <trkpt lat="44.8615" lon="-0.34086">
        <ele>20.32</ele>
        <time>2015-12-13T10:40:59Z</time>
      </trkpt>
      <trkpt lat="44.86153" lon="-0.34081">
        <ele>20.32</ele>
        <time>2015-12-13T10:41:03Z</time>
      </trkpt>
      <trkpt lat="44.86165" lon="-0.34058">
        <ele>19.84</ele>
        <time>2015-12-13T10:41:20Z</time>
      </trkpt>
      <trkpt lat="44.86175" lon="-0.34038">
        <ele>19.36</ele>
        <time>2015-12-13T10:41:35Z</time>
      </trkpt>
      <trkpt lat="44.86187" lon="-0.34019">
        <ele>18.4</ele>
        <time>2015-12-13T10:41:50Z</time>
      </trkpt>
      <trkpt lat="44.86198" lon="-0.33998">
        <ele>18.4</ele>
        <time>2015-12-13T10:42:05Z</time>
      </trkpt>
      <trkpt lat="44.86208" lon="-0.33981">
        <ele>17.92</ele>
        <time>2015-12-13T10:42:21Z</time>
      </trkpt>
      <trkpt lat="44.8622" lon="-0.33959">
        <ele>17.92</ele>
        <time>2015-12-13T10:42:36Z</time>
      </trkpt>
      <trkpt lat="44.86231" lon="-0.33952">
        <ele>16.48</ele>
        <time>2015-12-13T10:42:48Z</time>
      </trkpt>
      <trkpt lat="44.86238" lon="-0.33957">
        <ele>15.52</ele>
        <time>2015-12-13T10:43:02Z</time>
      </trkpt>
      <trkpt lat="44.86242" lon="-0.33962">
        <ele>15.52</ele>
        <time>2015-12-13T10:43:09Z</time>
      </trkpt>
      <trkpt lat="44.86249" lon="-0.33966">
        <ele>15.52</ele>
        <time>2015-12-13T10:43:16Z</time>
      </trkpt>
      <trkpt lat="44.86255" lon="-0.33954">
        <ele>15.52</ele>
        <time>2015-12-13T10:43:28Z</time>
      </trkpt>
      <trkpt lat="44.86259" lon="-0.33942">
        <ele>15.52</ele>
        <time>2015-12-13T10:43:43Z</time>
      </trkpt>
      <trkpt lat="44.86267" lon="-0.33924">
        <ele>15.52</ele>
        <time>2015-12-13T10:43:57Z</time>
      </trkpt>
      <trkpt lat="44.86269" lon="-0.33918">
        <ele>16.48</ele>
        <time>2015-12-13T10:44:01Z</time>
      </trkpt>
      <trkpt lat="44.86276" lon="-0.33902">
        <ele>16.96</ele>
        <time>2015-12-13T10:44:13Z</time>
      </trkpt>
      <trkpt lat="44.86284" lon="-0.33882">
        <ele>17.44</ele>
        <time>2015-12-13T10:44:27Z</time>
      </trkpt>
      <trkpt lat="44.86288" lon="-0.33868">
        <ele>18.4</ele>
        <time>2015-12-13T10:44:38Z</time>
      </trkpt>
      <trkpt lat="44.86291" lon="-0.3386">
        <ele>18.88</ele>
        <time>2015-12-13T10:44:44Z</time>
      </trkpt>
      <trkpt lat="44.86299" lon="-0.33842">
        <ele>19.36</ele>
        <time>2015-12-13T10:44:58Z</time>
      </trkpt>
      <trkpt lat="44.86309" lon="-0.33826">
        <ele>20.32</ele>
        <time>2015-12-13T10:45:12Z</time>
      </trkpt>
      <trkpt lat="44.86321" lon="-0.33813">
        <ele>20.81</ele>
        <time>2015-12-13T10:45:25Z</time>
      </trkpt>
      <trkpt lat="44.86327" lon="-0.33814">
        <ele>20.81</ele>
        <time>2015-12-13T10:45:31Z</time>
      </trkpt>
      <trkpt lat="44.86332" lon="-0.3382">
        <ele>19.36</ele>
        <time>2015-12-13T10:45:37Z</time>
      </trkpt>
      <trkpt lat="44.86346" lon="-0.33836">
        <ele>17.92</ele>
        <time>2015-12-13T10:45:53Z</time>
      </trkpt>
      <trkpt lat="44.86359" lon="-0.33854">
        <ele>16</ele>
        <time>2015-12-13T10:46:09Z</time>
      </trkpt>
      <trkpt lat="44.86369" lon="-0.3387">
        <ele>14.56</ele>
        <time>2015-12-13T10:46:22Z</time>
      </trkpt>
      <trkpt lat="44.86382" lon="-0.33886">
        <ele>13.12</ele>
        <time>2015-12-13T10:46:37Z</time>
      </trkpt>
      <trkpt lat="44.86394" lon="-0.33902">
        <ele>12.63</ele>
        <time>2015-12-13T10:46:52Z</time>
      </trkpt>
      <trkpt lat="44.86407" lon="-0.33917">
        <ele>11.67</ele>
        <time>2015-12-13T10:47:05Z</time>
      </trkpt>
      <trkpt lat="44.86417" lon="-0.33928">
        <ele>11.67</ele>
        <time>2015-12-13T10:47:16Z</time>
      </trkpt>
      <trkpt lat="44.86421" lon="-0.33936">
        <ele>11.67</ele>
        <time>2015-12-13T10:47:23Z</time>
      </trkpt>
      <trkpt lat="44.86422" lon="-0.33941">
        <ele>11.67</ele>
        <time>2015-12-13T10:47:38Z</time>
      </trkpt>
      <trkpt lat="44.86424" lon="-0.33938">
        <ele>11.67</ele>
        <time>2015-12-13T10:47:47Z</time>
      </trkpt>
      <trkpt lat="44.86431" lon="-0.33932">
        <ele>12.15</ele>
        <time>2015-12-13T10:47:58Z</time>
      </trkpt>
      <trkpt lat="44.86444" lon="-0.33921">
        <ele>12.15</ele>
        <time>2015-12-13T10:48:11Z</time>
      </trkpt>
      <trkpt lat="44.86458" lon="-0.33909">
        <ele>12.15</ele>
        <time>2015-12-13T10:48:24Z</time>
      </trkpt>
      <trkpt lat="44.8647" lon="-0.33897">
        <ele>12.15</ele>
        <time>2015-12-13T10:48:37Z</time>
      </trkpt>
      <trkpt lat="44.86485" lon="-0.33884">
        <ele>12.15</ele>
        <time>2015-12-13T10:48:51Z</time>
      </trkpt>
      <trkpt lat="44.86499" lon="-0.33872">
        <ele>10.71</ele>
        <time>2015-12-13T10:49:04Z</time>
      </trkpt>
      <trkpt lat="44.86511" lon="-0.33861">
        <ele>10.71</ele>
        <time>2015-12-13T10:49:17Z</time>
      </trkpt>
      <trkpt lat="44.86519" lon="-0.33852">
        <ele>10.71</ele>
        <time>2015-12-13T10:49:28Z</time>
      </trkpt>
      <trkpt lat="44.86523" lon="-0.33848">
        <ele>10.71</ele>
        <time>2015-12-13T10:49:32Z</time>
      </trkpt>
      <trkpt lat="44.86535" lon="-0.33835">
        <ele>10.71</ele>
        <time>2015-12-13T10:49:46Z</time>
      </trkpt>
      <trkpt lat="44.8655" lon="-0.33818">
        <ele>10.71</ele>
        <time>2015-12-13T10:50:03Z</time>
      </trkpt>
      <trkpt lat="44.86561" lon="-0.33805">
        <ele>10.71</ele>
        <time>2015-12-13T10:50:16Z</time>
      </trkpt>
      <trkpt lat="44.86576" lon="-0.33787">
        <ele>10.71</ele>
        <time>2015-12-13T10:50:32Z</time>
      </trkpt>
      <trkpt lat="44.86584" lon="-0.33782">
        <ele>10.71</ele>
        <time>2015-12-13T10:50:48Z</time>
      </trkpt>
      <trkpt lat="44.86583" lon="-0.33777">
        <ele>10.71</ele>
        <time>2015-12-13T10:51:00Z</time>
      </trkpt>
      <trkpt lat="44.86586" lon="-0.33774">
        <ele>10.71</ele>
        <time>2015-12-13T10:51:24Z</time>
      </trkpt>
      <trkpt lat="44.8659" lon="-0.3377">
        <ele>10.71</ele>
        <time>2015-12-13T10:51:31Z</time>
      </trkpt>
      <trkpt lat="44.86593" lon="-0.33768">
        <ele>10.71</ele>
        <time>2015-12-13T10:51:34Z</time>
      </trkpt>
      <trkpt lat="44.86598" lon="-0.3377">
        <ele>11.19</ele>
        <time>2015-12-13T10:51:40Z</time>
      </trkpt>
      <trkpt lat="44.86606" lon="-0.33789">
        <ele>11.19</ele>
        <time>2015-12-13T10:51:55Z</time>
      </trkpt>
      <trkpt lat="44.86612" lon="-0.33803">
        <ele>11.19</ele>
        <time>2015-12-13T10:52:08Z</time>
      </trkpt>
      <trkpt lat="44.8662" lon="-0.33818">
        <ele>11.19</ele>
        <time>2015-12-13T10:52:21Z</time>
      </trkpt>
      <trkpt lat="44.8663" lon="-0.33835">
        <ele>11.19</ele>
        <time>2015-12-13T10:52:34Z</time>
      </trkpt>
      <trkpt lat="44.8664" lon="-0.33851">
        <ele>10.71</ele>
        <time>2015-12-13T10:52:47Z</time>
      </trkpt>
      <trkpt lat="44.8665" lon="-0.33868">
        <ele>10.71</ele>
        <time>2015-12-13T10:53:00Z</time>
      </trkpt>
      <trkpt lat="44.86659" lon="-0.33887">
        <ele>10.71</ele>
        <time>2015-12-13T10:53:13Z</time>
      </trkpt>
      <trkpt lat="44.86672" lon="-0.33908">
        <ele>10.71</ele>
        <time>2015-12-13T10:53:29Z</time>
      </trkpt>
      <trkpt lat="44.86683" lon="-0.33926">
        <ele>10.71</ele>
        <time>2015-12-13T10:53:43Z</time>
      </trkpt>
      <trkpt lat="44.86688" lon="-0.33935">
        <ele>10.71</ele>
        <time>2015-12-13T10:53:51Z</time>
      </trkpt>
      <trkpt lat="44.86702" lon="-0.33957">
        <ele>12.63</ele>
        <time>2015-12-13T10:54:07Z</time>
      </trkpt>
      <trkpt lat="44.86713" lon="-0.33978">
        <ele>13.6</ele>
        <time>2015-12-13T10:54:21Z</time>
      </trkpt>
      <trkpt lat="44.86726" lon="-0.33999">
        <ele>15.04</ele>
        <time>2015-12-13T10:54:37Z</time>
      </trkpt>
      <trkpt lat="44.86733" lon="-0.34016">
        <ele>16.48</ele>
        <time>2015-12-13T10:54:51Z</time>
      </trkpt>
      <trkpt lat="44.86737" lon="-0.34039">
        <ele>18.4</ele>
        <time>2015-12-13T10:55:07Z</time>
      </trkpt>
      <trkpt lat="44.86742" lon="-0.34046">
        <ele>18.88</ele>
        <time>2015-12-13T10:55:21Z</time>
      </trkpt>
      <trkpt lat="44.86743" lon="-0.34046">
        <ele>18.88</ele>
        <time>2015-12-13T10:55:37Z</time>
      </trkpt>
      <trkpt lat="44.86743" lon="-0.34049">
        <ele>18.88</ele>
        <time>2015-12-13T10:55:41Z</time>
      </trkpt>
      <trkpt lat="44.8674" lon="-0.34051">
        <ele>18.88</ele>
        <time>2015-12-13T10:55:44Z</time>
      </trkpt>
      <trkpt lat="44.86732" lon="-0.34069">
        <ele>19.84</ele>
        <time>2015-12-13T10:55:59Z</time>
      </trkpt>
      <trkpt lat="44.86723" lon="-0.34079">
        <ele>18.4</ele>
        <time>2015-12-13T10:56:11Z</time>
      </trkpt>
      <trkpt lat="44.86712" lon="-0.34089">
        <ele>16.96</ele>
        <time>2015-12-13T10:56:24Z</time>
      </trkpt>
      <trkpt lat="44.86698" lon="-0.34102">
        <ele>16</ele>
        <time>2015-12-13T10:56:41Z</time>
      </trkpt>
      <trkpt lat="44.86683" lon="-0.34122">
        <ele>15.52</ele>
        <time>2015-12-13T10:56:56Z</time>
      </trkpt>
      <trkpt lat="44.86679" lon="-0.34126">
        <ele>15.52</ele>
        <time>2015-12-13T10:56:59Z</time>
      </trkpt>
      <trkpt lat="44.86676" lon="-0.34128">
        <ele>15.52</ele>
        <time>2015-12-13T10:57:01Z</time>
      </trkpt>
      <trkpt lat="44.86661" lon="-0.34146">
        <ele>15.04</ele>
        <time>2015-12-13T10:57:16Z</time>
      </trkpt>
      <trkpt lat="44.86656" lon="-0.34153">
        <ele>16</ele>
        <time>2015-12-13T10:57:25Z</time>
      </trkpt>
      <trkpt lat="44.8665" lon="-0.3416">
        <ele>16</ele>
        <time>2015-12-13T10:57:45Z</time>
      </trkpt>
      <trkpt lat="44.86641" lon="-0.3417">
        <ele>16.96</ele>
        <time>2015-12-13T10:58:00Z</time>
      </trkpt>
      <trkpt lat="44.86639" lon="-0.34174">
        <ele>16.96</ele>
        <time>2015-12-13T10:58:09Z</time>
      </trkpt>
      <trkpt lat="44.86625" lon="-0.34188">
        <ele>17.44</ele>
        <time>2015-12-13T10:58:24Z</time>
      </trkpt>
      <trkpt lat="44.86612" lon="-0.34202">
        <ele>18.88</ele>
        <time>2015-12-13T10:58:38Z</time>
      </trkpt>
      <trkpt lat="44.86605" lon="-0.34223">
        <ele>19.84</ele>
        <time>2015-12-13T10:58:52Z</time>
      </trkpt>
      <trkpt lat="44.86613" lon="-0.34241">
        <ele>20.81</ele>
        <time>2015-12-13T10:59:05Z</time>
      </trkpt>
      <trkpt lat="44.86622" lon="-0.3426">
        <ele>22.25</ele>
        <time>2015-12-13T10:59:18Z</time>
      </trkpt>
      <trkpt lat="44.8663" lon="-0.34277">
        <ele>22.73</ele>
        <time>2015-12-13T10:59:30Z</time>
      </trkpt>
      <trkpt lat="44.86636" lon="-0.34296">
        <ele>23.69</ele>
        <time>2015-12-13T10:59:42Z</time>
      </trkpt>
      <trkpt lat="44.8664" lon="-0.34315">
        <ele>25.13</ele>
        <time>2015-12-13T10:59:54Z</time>
      </trkpt>
      <trkpt lat="44.86645" lon="-0.34339">
        <ele>27.53</ele>
        <time>2015-12-13T11:00:08Z</time>
      </trkpt>
      <trkpt lat="44.86645" lon="-0.3436">
        <ele>28.98</ele>
        <time>2015-12-13T11:00:22Z</time>
      </trkpt>
      <trkpt lat="44.86645" lon="-0.34374">
        <ele>29.46</ele>
        <time>2015-12-13T11:00:33Z</time>
      </trkpt>
      <trkpt lat="44.86644" lon="-0.34392">
        <ele>30.42</ele>
        <time>2015-12-13T11:00:46Z</time>
      </trkpt>
      <trkpt lat="44.86643" lon="-0.34392">
        <ele>30.42</ele>
        <time>2015-12-13T11:00:48Z</time>
      </trkpt>
      <trkpt lat="44.86643" lon="-0.34401">
        <ele>30.42</ele>
        <time>2015-12-13T11:00:54Z</time>
      </trkpt>
      <trkpt lat="44.86637" lon="-0.34426">
        <ele>31.38</ele>
        <time>2015-12-13T11:01:10Z</time>
      </trkpt>
      <trkpt lat="44.86634" lon="-0.34442">
        <ele>31.38</ele>
        <time>2015-12-13T11:01:19Z</time>
      </trkpt>
      <trkpt lat="44.86624" lon="-0.34462">
        <ele>32.34</ele>
        <time>2015-12-13T11:01:33Z</time>
      </trkpt>
      <trkpt lat="44.86612" lon="-0.34478">
        <ele>32.34</ele>
        <time>2015-12-13T11:01:47Z</time>
      </trkpt>
      <trkpt lat="44.86598" lon="-0.34492">
        <ele>30.9</ele>
        <time>2015-12-13T11:02:01Z</time>
      </trkpt>
      <trkpt lat="44.86585" lon="-0.34501">
        <ele>29.94</ele>
        <time>2015-12-13T11:02:14Z</time>
      </trkpt>
      <trkpt lat="44.86573" lon="-0.34512">
        <ele>29.94</ele>
        <time>2015-12-13T11:02:27Z</time>
      </trkpt>
      <trkpt lat="44.86558" lon="-0.34524">
        <ele>29.46</ele>
        <time>2015-12-13T11:02:42Z</time>
      </trkpt>
      <trkpt lat="44.86544" lon="-0.34534">
        <ele>29.46</ele>
        <time>2015-12-13T11:02:55Z</time>
      </trkpt>
      <trkpt lat="44.86539" lon="-0.34542">
        <ele>29.46</ele>
        <time>2015-12-13T11:03:02Z</time>
      </trkpt>
      <trkpt lat="44.86541" lon="-0.34552">
        <ele>29.46</ele>
        <time>2015-12-13T11:03:09Z</time>
      </trkpt>
      <trkpt lat="44.86544" lon="-0.34565">
        <ele>29.46</ele>
        <time>2015-12-13T11:03:20Z</time>
      </trkpt>
      <trkpt lat="44.86545" lon="-0.34568">
        <ele>29.46</ele>
        <time>2015-12-13T11:03:23Z</time>
      </trkpt>
      <trkpt lat="44.86548" lon="-0.34578">
        <ele>30.9</ele>
        <time>2015-12-13T11:03:30Z</time>
      </trkpt>
      <trkpt lat="44.86549" lon="-0.34581">
        <ele>30.9</ele>
        <time>2015-12-13T11:03:32Z</time>
      </trkpt>
      <trkpt lat="44.86556" lon="-0.34601">
        <ele>31.38</ele>
        <time>2015-12-13T11:03:46Z</time>
      </trkpt>
      <trkpt lat="44.86559" lon="-0.34609">
        <ele>31.86</ele>
        <time>2015-12-13T11:03:51Z</time>
      </trkpt>
      <trkpt lat="44.86566" lon="-0.34633">
        <ele>32.34</ele>
        <time>2015-12-13T11:04:06Z</time>
      </trkpt>
      <trkpt lat="44.86574" lon="-0.34656">
        <ele>33.3</ele>
        <time>2015-12-13T11:04:21Z</time>
      </trkpt>
      <trkpt lat="44.86579" lon="-0.34675">
        <ele>34.26</ele>
        <time>2015-12-13T11:04:34Z</time>
      </trkpt>
      <trkpt lat="44.86586" lon="-0.34695">
        <ele>35.23</ele>
        <time>2015-12-13T11:04:47Z</time>
      </trkpt>
      <trkpt lat="44.86592" lon="-0.34712">
        <ele>35.71</ele>
        <time>2015-12-13T11:04:58Z</time>
      </trkpt>
      <trkpt lat="44.86599" lon="-0.34732">
        <ele>36.67</ele>
        <time>2015-12-13T11:05:11Z</time>
      </trkpt>
      <trkpt lat="44.866" lon="-0.34735">
        <ele>36.67</ele>
        <time>2015-12-13T11:05:13Z</time>
      </trkpt>
      <trkpt lat="44.86604" lon="-0.34745">
        <ele>37.15</ele>
        <time>2015-12-13T11:05:19Z</time>
      </trkpt>
      <trkpt lat="44.86605" lon="-0.34749">
        <ele>37.63</ele>
        <time>2015-12-13T11:05:22Z</time>
      </trkpt>
      <trkpt lat="44.86612" lon="-0.34771">
        <ele>38.59</ele>
        <time>2015-12-13T11:05:36Z</time>
      </trkpt>
      <trkpt lat="44.86617" lon="-0.34787">
        <ele>39.07</ele>
        <time>2015-12-13T11:05:46Z</time>
      </trkpt>
      <trkpt lat="44.86625" lon="-0.34807">
        <ele>39.07</ele>
        <time>2015-12-13T11:05:59Z</time>
      </trkpt>
      <trkpt lat="44.86631" lon="-0.34828">
        <ele>40.03</ele>
        <time>2015-12-13T11:06:12Z</time>
      </trkpt>
      <trkpt lat="44.86635" lon="-0.3484">
        <ele>40.03</ele>
        <time>2015-12-13T11:06:20Z</time>
      </trkpt>
      <trkpt lat="44.86643" lon="-0.34864">
        <ele>40.51</ele>
        <time>2015-12-13T11:06:35Z</time>
      </trkpt>
      <trkpt lat="44.86649" lon="-0.34884">
        <ele>40.51</ele>
        <time>2015-12-13T11:06:48Z</time>
      </trkpt>
      <trkpt lat="44.86657" lon="-0.34906">
        <ele>40.51</ele>
        <time>2015-12-13T11:07:02Z</time>
      </trkpt>
      <trkpt lat="44.86662" lon="-0.34924">
        <ele>40.51</ele>
        <time>2015-12-13T11:07:14Z</time>
      </trkpt>
      <trkpt lat="44.86669" lon="-0.34943">
        <ele>40.51</ele>
        <time>2015-12-13T11:07:26Z</time>
      </trkpt>
      <trkpt lat="44.86676" lon="-0.34965">
        <ele>40.99</ele>
        <time>2015-12-13T11:07:40Z</time>
      </trkpt>
      <trkpt lat="44.86683" lon="-0.34985">
        <ele>41.47</ele>
        <time>2015-12-13T11:07:53Z</time>
      </trkpt>
      <trkpt lat="44.86689" lon="-0.35007">
        <ele>41.47</ele>
        <time>2015-12-13T11:08:06Z</time>
      </trkpt>
      <trkpt lat="44.86696" lon="-0.35028">
        <ele>41.47</ele>
        <time>2015-12-13T11:08:19Z</time>
      </trkpt>
      <trkpt lat="44.86703" lon="-0.35045">
        <ele>41.47</ele>
        <time>2015-12-13T11:08:30Z</time>
      </trkpt>
      <trkpt lat="44.86709" lon="-0.35065">
        <ele>40.99</ele>
        <time>2015-12-13T11:08:43Z</time>
      </trkpt>
      <trkpt lat="44.86714" lon="-0.35083">
        <ele>40.99</ele>
        <time>2015-12-13T11:08:54Z</time>
      </trkpt>
      <trkpt lat="44.86721" lon="-0.351">
        <ele>40.99</ele>
        <time>2015-12-13T11:09:07Z</time>
      </trkpt>
      <trkpt lat="44.86721" lon="-0.35099">
        <ele>40.99</ele>
        <time>2015-12-13T11:09:23Z</time>
      </trkpt>
      <trkpt lat="44.86722" lon="-0.35099">
        <ele>40.99</ele>
        <time>2015-12-13T11:09:29Z</time>
      </trkpt>
      <trkpt lat="44.8672" lon="-0.351">
        <ele>40.99</ele>
        <time>2015-12-13T11:09:31Z</time>
      </trkpt>
      <trkpt lat="44.86718" lon="-0.35106">
        <ele>40.99</ele>
        <time>2015-12-13T11:09:34Z</time>
      </trkpt>
      <trkpt lat="44.86713" lon="-0.3511">
        <ele>40.99</ele>
        <time>2015-12-13T11:09:39Z</time>
      </trkpt>
      <trkpt lat="44.86691" lon="-0.3512">
        <ele>42.92</ele>
        <time>2015-12-13T11:09:57Z</time>
      </trkpt>
      <trkpt lat="44.86673" lon="-0.35128">
        <ele>43.88</ele>
        <time>2015-12-13T11:10:12Z</time>
      </trkpt>
      <trkpt lat="44.86654" lon="-0.35135">
        <ele>44.84</ele>
        <time>2015-12-13T11:10:27Z</time>
      </trkpt>
      <trkpt lat="44.86647" lon="-0.35134">
        <ele>45.8</ele>
        <time>2015-12-13T11:10:40Z</time>
      </trkpt>
      <trkpt lat="44.86647" lon="-0.35135">
        <ele>45.8</ele>
        <time>2015-12-13T11:10:41Z</time>
      </trkpt>
      <trkpt lat="44.8663" lon="-0.35146">
        <ele>45.8</ele>
        <time>2015-12-13T11:10:56Z</time>
      </trkpt>
      <trkpt lat="44.86615" lon="-0.35155">
        <ele>46.76</ele>
        <time>2015-12-13T11:11:10Z</time>
      </trkpt>
      <trkpt lat="44.86605" lon="-0.35163">
        <ele>47.72</ele>
        <time>2015-12-13T11:11:23Z</time>
      </trkpt>
      <trkpt lat="44.86594" lon="-0.3517">
        <ele>47.72</ele>
        <time>2015-12-13T11:11:37Z</time>
      </trkpt>
      <trkpt lat="44.8659" lon="-0.35171">
        <ele>48.68</ele>
        <time>2015-12-13T11:11:48Z</time>
      </trkpt>
      <trkpt lat="44.86587" lon="-0.35171">
        <ele>48.2</ele>
        <time>2015-12-13T11:12:00Z</time>
      </trkpt>
      <trkpt lat="44.86585" lon="-0.35173">
        <ele>48.2</ele>
        <time>2015-12-13T11:12:03Z</time>
      </trkpt>
      <trkpt lat="44.86574" lon="-0.35182">
        <ele>48.2</ele>
        <time>2015-12-13T11:12:17Z</time>
      </trkpt>
      <trkpt lat="44.8657" lon="-0.35185">
        <ele>48.68</ele>
        <time>2015-12-13T11:12:29Z</time>
      </trkpt>
      <trkpt lat="44.8657" lon="-0.35194">
        <ele>48.68</ele>
        <time>2015-12-13T11:12:42Z</time>
      </trkpt>
      <trkpt lat="44.86571" lon="-0.35196">
        <ele>49.16</ele>
        <time>2015-12-13T11:12:52Z</time>
      </trkpt>
      <trkpt lat="44.86571" lon="-0.35198">
        <ele>49.16</ele>
        <time>2015-12-13T11:12:54Z</time>
      </trkpt>
      <trkpt lat="44.86574" lon="-0.35201">
        <ele>49.16</ele>
        <time>2015-12-13T11:13:02Z</time>
      </trkpt>
      <trkpt lat="44.86571" lon="-0.35219">
        <ele>49.65</ele>
        <time>2015-12-13T11:13:15Z</time>
      </trkpt>
      <trkpt lat="44.86571" lon="-0.35217">
        <ele>49.65</ele>
        <time>2015-12-13T11:13:25Z</time>
      </trkpt>
      <trkpt lat="44.86572" lon="-0.35212">
        <ele>49.65</ele>
        <time>2015-12-13T11:13:29Z</time>
      </trkpt>
      <trkpt lat="44.86573" lon="-0.35206">
        <ele>49.65</ele>
        <time>2015-12-13T11:13:34Z</time>
      </trkpt>
      <trkpt lat="44.86575" lon="-0.35199">
        <ele>49.65</ele>
        <time>2015-12-13T11:13:41Z</time>
      </trkpt>
      <trkpt lat="44.86574" lon="-0.35189">
        <ele>48.2</ele>
        <time>2015-12-13T11:13:56Z</time>
      </trkpt>
      <trkpt lat="44.86575" lon="-0.35189">
        <ele>48.2</ele>
        <time>2015-12-13T11:14:12Z</time>
      </trkpt>
      <trkpt lat="44.86571" lon="-0.3519">
        <ele>48.2</ele>
        <time>2015-12-13T11:14:28Z</time>
      </trkpt>
      <trkpt lat="44.86571" lon="-0.3519">
        <ele>48.2</ele>
        <time>2015-12-13T11:14:54Z</time>
      </trkpt>
      <trkpt lat="44.8657" lon="-0.3519">
        <ele>48.2</ele>
        <time>2015-12-13T11:15:23Z</time>
      </trkpt>
      <trkpt lat="44.86571" lon="-0.35194">
        <ele>48.2</ele>
        <time>2015-12-13T11:15:43Z</time>
      </trkpt>
      <trkpt lat="44.86567" lon="-0.35199">
        <ele>48.2</ele>
        <time>2015-12-13T11:15:58Z</time>
      </trkpt>
      <trkpt lat="44.86569" lon="-0.352">
        <ele>48.2</ele>
        <time>2015-12-13T11:16:21Z</time>
      </trkpt>
      <trkpt lat="44.86566" lon="-0.35202">
        <ele>48.2</ele>
        <time>2015-12-13T11:16:39Z</time>
      </trkpt>
      <trkpt lat="44.86569" lon="-0.35195">
        <ele>49.16</ele>
        <time>2015-12-13T11:16:56Z</time>
      </trkpt>
      <trkpt lat="44.86571" lon="-0.35191">
        <ele>49.16</ele>
        <time>2015-12-13T11:17:17Z</time>
      </trkpt>
      <trkpt lat="44.86571" lon="-0.3519">
        <ele>49.16</ele>
        <time>2015-12-13T11:17:31Z</time>
      </trkpt>
      <trkpt lat="44.86568" lon="-0.35192">
        <ele>49.16</ele>
        <time>2015-12-13T11:18:02Z</time>
      </trkpt>
      <trkpt lat="44.86569" lon="-0.35207">
        <ele>49.16</ele>
        <time>2015-12-13T11:18:17Z</time>
      </trkpt>
      <trkpt lat="44.86574" lon="-0.35229">
        <ele>49.65</ele>
        <time>2015-12-13T11:18:33Z</time>
      </trkpt>
      <trkpt lat="44.86575" lon="-0.3523">
        <ele>49.65</ele>
        <time>2015-12-13T11:18:34Z</time>
      </trkpt>
      <trkpt lat="44.8657" lon="-0.35246">
        <ele>50.13</ele>
        <time>2015-12-13T11:18:48Z</time>
      </trkpt>
      <trkpt lat="44.86561" lon="-0.35265">
        <ele>50.13</ele>
        <time>2015-12-13T11:19:04Z</time>
      </trkpt>
      <trkpt lat="44.86559" lon="-0.35269">
        <ele>50.13</ele>
        <time>2015-12-13T11:19:07Z</time>
      </trkpt>
      <trkpt lat="44.86546" lon="-0.35291">
        <ele>50.13</ele>
        <time>2015-12-13T11:19:26Z</time>
      </trkpt>
      <trkpt lat="44.86534" lon="-0.35311">
        <ele>50.13</ele>
        <time>2015-12-13T11:19:43Z</time>
      </trkpt>
      <trkpt lat="44.8652" lon="-0.35332">
        <ele>48.68</ele>
        <time>2015-12-13T11:20:02Z</time>
      </trkpt>
      <trkpt lat="44.86507" lon="-0.35347">
        <ele>48.68</ele>
        <time>2015-12-13T11:20:17Z</time>
      </trkpt>
      <trkpt lat="44.86495" lon="-0.35361">
        <ele>48.2</ele>
        <time>2015-12-13T11:20:31Z</time>
      </trkpt>
      <trkpt lat="44.86483" lon="-0.35376">
        <ele>48.2</ele>
        <time>2015-12-13T11:20:46Z</time>
      </trkpt>
      <trkpt lat="44.86468" lon="-0.35393">
        <ele>48.2</ele>
        <time>2015-12-13T11:21:02Z</time>
      </trkpt>
      <trkpt lat="44.86456" lon="-0.35406">
        <ele>48.2</ele>
        <time>2015-12-13T11:21:15Z</time>
      </trkpt>
      <trkpt lat="44.86441" lon="-0.35422">
        <ele>48.2</ele>
        <time>2015-12-13T11:21:32Z</time>
      </trkpt>
      <trkpt lat="44.86425" lon="-0.35436">
        <ele>49.16</ele>
        <time>2015-12-13T11:21:48Z</time>
      </trkpt>
      <trkpt lat="44.86424" lon="-0.35437">
        <ele>49.16</ele>
        <time>2015-12-13T11:21:50Z</time>
      </trkpt>
      <trkpt lat="44.86405" lon="-0.35449">
        <ele>49.65</ele>
        <time>2015-12-13T11:22:08Z</time>
      </trkpt>
      <trkpt lat="44.86401" lon="-0.35452">
        <ele>49.65</ele>
        <time>2015-12-13T11:22:12Z</time>
      </trkpt>
      <trkpt lat="44.86395" lon="-0.35454">
        <ele>49.65</ele>
        <time>2015-12-13T11:22:18Z</time>
      </trkpt>
      <trkpt lat="44.86378" lon="-0.35457">
        <ele>50.13</ele>
        <time>2015-12-13T11:22:35Z</time>
      </trkpt>
      <trkpt lat="44.86382" lon="-0.35452">
        <ele>50.13</ele>
        <time>2015-12-13T11:22:54Z</time>
      </trkpt>
      <trkpt lat="44.86383" lon="-0.35449">
        <ele>50.13</ele>
        <time>2015-12-13T11:22:57Z</time>
      </trkpt>
      <trkpt lat="44.86383" lon="-0.35446">
        <ele>50.13</ele>
        <time>2015-12-13T11:23:15Z</time>
      </trkpt>
      <trkpt lat="44.86378" lon="-0.35449">
        <ele>50.13</ele>
        <time>2015-12-13T11:23:29Z</time>
      </trkpt>
      <trkpt lat="44.86376" lon="-0.3545">
        <ele>50.13</ele>
        <time>2015-12-13T11:23:50Z</time>
      </trkpt>
      <trkpt lat="44.86375" lon="-0.35452">
        <ele>50.13</ele>
        <time>2015-12-13T11:24:04Z</time>
      </trkpt>
      <trkpt lat="44.86375" lon="-0.35452">
        <ele>49.65</ele>
        <time>2015-12-13T11:24:30Z</time>
      </trkpt>
      <trkpt lat="44.86374" lon="-0.35453">
        <ele>49.65</ele>
        <time>2015-12-13T11:24:55Z</time>
      </trkpt>
      <trkpt lat="44.86375" lon="-0.35453">
        <ele>49.65</ele>
        <time>2015-12-13T11:25:14Z</time>
      </trkpt>
      <trkpt lat="44.86375" lon="-0.35457">
        <ele>50.13</ele>
        <time>2015-12-13T11:25:26Z</time>
      </trkpt>
      <trkpt lat="44.86378" lon="-0.3546">
        <ele>50.13</ele>
        <time>2015-12-13T11:25:30Z</time>
      </trkpt>
      <trkpt lat="44.86377" lon="-0.35464">
        <ele>49.65</ele>
        <time>2015-12-13T11:25:34Z</time>
      </trkpt>
      <trkpt lat="44.86372" lon="-0.35469">
        <ele>48.68</ele>
        <time>2015-12-13T11:25:40Z</time>
      </trkpt>
      <trkpt lat="44.86376" lon="-0.35491">
        <ele>47.72</ele>
        <time>2015-12-13T11:25:54Z</time>
      </trkpt>
      <trkpt lat="44.8638" lon="-0.35512">
        <ele>47.24</ele>
        <time>2015-12-13T11:26:07Z</time>
      </trkpt>
      <trkpt lat="44.86384" lon="-0.35533">
        <ele>46.28</ele>
        <time>2015-12-13T11:26:20Z</time>
      </trkpt>
      <trkpt lat="44.86388" lon="-0.35555">
        <ele>44.84</ele>
        <time>2015-12-13T11:26:34Z</time>
      </trkpt>
      <trkpt lat="44.86393" lon="-0.35581">
        <ele>44.36</ele>
        <time>2015-12-13T11:26:49Z</time>
      </trkpt>
      <trkpt lat="44.86395" lon="-0.35587">
        <ele>44.36</ele>
        <time>2015-12-13T11:27:01Z</time>
      </trkpt>
      <trkpt lat="44.86399" lon="-0.35611">
        <ele>43.4</ele>
        <time>2015-12-13T11:27:16Z</time>
      </trkpt>
      <trkpt lat="44.86404" lon="-0.35637">
        <ele>44.36</ele>
        <time>2015-12-13T11:27:33Z</time>
      </trkpt>
      <trkpt lat="44.86407" lon="-0.35653">
        <ele>44.84</ele>
        <time>2015-12-13T11:27:43Z</time>
      </trkpt>
      <trkpt lat="44.86412" lon="-0.35674">
        <ele>45.32</ele>
        <time>2015-12-13T11:27:57Z</time>
      </trkpt>
      <trkpt lat="44.86416" lon="-0.357">
        <ele>46.28</ele>
        <time>2015-12-13T11:28:13Z</time>
      </trkpt>
      <trkpt lat="44.86421" lon="-0.35726">
        <ele>47.24</ele>
        <time>2015-12-13T11:28:30Z</time>
      </trkpt>
      <trkpt lat="44.86426" lon="-0.35747">
        <ele>47.72</ele>
        <time>2015-12-13T11:28:43Z</time>
      </trkpt>
      <trkpt lat="44.86429" lon="-0.35767">
        <ele>48.68</ele>
        <time>2015-12-13T11:28:56Z</time>
      </trkpt>
      <trkpt lat="44.86432" lon="-0.35787">
        <ele>50.13</ele>
        <time>2015-12-13T11:29:09Z</time>
      </trkpt>
      <trkpt lat="44.86437" lon="-0.35815">
        <ele>51.57</ele>
        <time>2015-12-13T11:29:26Z</time>
      </trkpt>
      <trkpt lat="44.86441" lon="-0.35836">
        <ele>52.05</ele>
        <time>2015-12-13T11:29:39Z</time>
      </trkpt>
      <trkpt lat="44.86444" lon="-0.35859">
        <ele>53.97</ele>
        <time>2015-12-13T11:29:54Z</time>
      </trkpt>
      <trkpt lat="44.86449" lon="-0.3588">
        <ele>54.45</ele>
        <time>2015-12-13T11:30:07Z</time>
      </trkpt>
      <trkpt lat="44.86455" lon="-0.35899">
        <ele>55.41</ele>
        <time>2015-12-13T11:30:20Z</time>
      </trkpt>
      <trkpt lat="44.86465" lon="-0.35904">
        <ele>56.37</ele>
        <time>2015-12-13T11:30:30Z</time>
      </trkpt>
      <trkpt lat="44.86469" lon="-0.35911">
        <ele>56.86</ele>
        <time>2015-12-13T11:30:35Z</time>
      </trkpt>
      <trkpt lat="44.86481" lon="-0.3593">
        <ele>58.3</ele>
        <time>2015-12-13T11:30:50Z</time>
      </trkpt>
      <trkpt lat="44.86484" lon="-0.35935">
        <ele>58.78</ele>
        <time>2015-12-13T11:30:54Z</time>
      </trkpt>
      <trkpt lat="44.86493" lon="-0.35953">
        <ele>60.22</ele>
        <time>2015-12-13T11:31:08Z</time>
      </trkpt>
      <trkpt lat="44.86496" lon="-0.35959">
        <ele>60.7</ele>
        <time>2015-12-13T11:31:13Z</time>
      </trkpt>
      <trkpt lat="44.86481" lon="-0.35976">
        <ele>60.7</ele>
        <time>2015-12-13T11:31:28Z</time>
      </trkpt>
      <trkpt lat="44.86475" lon="-0.35982">
        <ele>60.7</ele>
        <time>2015-12-13T11:31:35Z</time>
      </trkpt>
      <trkpt lat="44.86464" lon="-0.3599">
        <ele>60.7</ele>
        <time>2015-12-13T11:31:46Z</time>
      </trkpt>
      <trkpt lat="44.86459" lon="-0.35995">
        <ele>61.18</ele>
        <time>2015-12-13T11:31:52Z</time>
      </trkpt>
      <trkpt lat="44.86453" lon="-0.36">
        <ele>61.18</ele>
        <time>2015-12-13T11:31:57Z</time>
      </trkpt>
      <trkpt lat="44.86437" lon="-0.36014">
        <ele>62.14</ele>
        <time>2015-12-13T11:32:13Z</time>
      </trkpt>
      <trkpt lat="44.86428" lon="-0.36021">
        <ele>63.1</ele>
        <time>2015-12-13T11:32:22Z</time>
      </trkpt>
      <trkpt lat="44.86428" lon="-0.36024">
        <ele>63.1</ele>
        <time>2015-12-13T11:32:24Z</time>
      </trkpt>
      <trkpt lat="44.8643" lon="-0.36037">
        <ele>63.58</ele>
        <time>2015-12-13T11:32:38Z</time>
      </trkpt>
      <trkpt lat="44.8643" lon="-0.36044">
        <ele>63.58</ele>
        <time>2015-12-13T11:32:46Z</time>
      </trkpt>
      <trkpt lat="44.86433" lon="-0.3605">
        <ele>64.07</ele>
        <time>2015-12-13T11:32:51Z</time>
      </trkpt>
      <trkpt lat="44.86442" lon="-0.36071">
        <ele>64.55</ele>
        <time>2015-12-13T11:33:07Z</time>
      </trkpt>
      <trkpt lat="44.86451" lon="-0.3609">
        <ele>65.03</ele>
        <time>2015-12-13T11:33:21Z</time>
      </trkpt>
      <trkpt lat="44.86459" lon="-0.36113">
        <ele>64.55</ele>
        <time>2015-12-13T11:33:38Z</time>
      </trkpt>
      <trkpt lat="44.8646" lon="-0.36118">
        <ele>64.55</ele>
        <time>2015-12-13T11:33:45Z</time>
      </trkpt>
      <trkpt lat="44.86458" lon="-0.36125">
        <ele>64.55</ele>
        <time>2015-12-13T11:33:50Z</time>
      </trkpt>
      <trkpt lat="44.86448" lon="-0.3614">
        <ele>65.03</ele>
        <time>2015-12-13T11:34:03Z</time>
      </trkpt>
      <trkpt lat="44.8644" lon="-0.36157">
        <ele>65.51</ele>
        <time>2015-12-13T11:34:17Z</time>
      </trkpt>
      <trkpt lat="44.86429" lon="-0.36179">
        <ele>65.51</ele>
        <time>2015-12-13T11:34:34Z</time>
      </trkpt>
      <trkpt lat="44.86419" lon="-0.36199">
        <ele>65.51</ele>
        <time>2015-12-13T11:34:48Z</time>
      </trkpt>
      <trkpt lat="44.86409" lon="-0.36221">
        <ele>65.99</ele>
        <time>2015-12-13T11:35:04Z</time>
      </trkpt>
      <trkpt lat="44.86398" lon="-0.36243">
        <ele>65.99</ele>
        <time>2015-12-13T11:35:19Z</time>
      </trkpt>
      <trkpt lat="44.86389" lon="-0.3626">
        <ele>65.99</ele>
        <time>2015-12-13T11:35:33Z</time>
      </trkpt>
      <trkpt lat="44.86382" lon="-0.36274">
        <ele>65.99</ele>
        <time>2015-12-13T11:35:45Z</time>
      </trkpt>
      <trkpt lat="44.86372" lon="-0.36294">
        <ele>66.47</ele>
        <time>2015-12-13T11:35:59Z</time>
      </trkpt>
      <trkpt lat="44.86362" lon="-0.36313">
        <ele>66.47</ele>
        <time>2015-12-13T11:36:13Z</time>
      </trkpt>
      <trkpt lat="44.86351" lon="-0.36331">
        <ele>66.47</ele>
        <time>2015-12-13T11:36:27Z</time>
      </trkpt>
      <trkpt lat="44.86341" lon="-0.36349">
        <ele>66.95</ele>
        <time>2015-12-13T11:36:41Z</time>
      </trkpt>
      <trkpt lat="44.86331" lon="-0.36364">
        <ele>67.43</ele>
        <time>2015-12-13T11:36:54Z</time>
      </trkpt>
      <trkpt lat="44.8632" lon="-0.36378">
        <ele>67.91</ele>
        <time>2015-12-13T11:37:06Z</time>
      </trkpt>
      <trkpt lat="44.86319" lon="-0.36382">
        <ele>67.91</ele>
        <time>2015-12-13T11:37:09Z</time>
      </trkpt>
      <trkpt lat="44.86312" lon="-0.36402">
        <ele>68.39</ele>
        <time>2015-12-13T11:37:23Z</time>
      </trkpt>
      <trkpt lat="44.86307" lon="-0.36424">
        <ele>68.39</ele>
        <time>2015-12-13T11:37:37Z</time>
      </trkpt>
      <trkpt lat="44.86305" lon="-0.36439">
        <ele>68.87</ele>
        <time>2015-12-13T11:37:49Z</time>
      </trkpt>
      <trkpt lat="44.86298" lon="-0.36459">
        <ele>68.87</ele>
        <time>2015-12-13T11:38:02Z</time>
      </trkpt>
      <trkpt lat="44.86287" lon="-0.3648">
        <ele>69.35</ele>
        <time>2015-12-13T11:38:18Z</time>
      </trkpt>
      <trkpt lat="44.86275" lon="-0.36496">
        <ele>70.31</ele>
        <time>2015-12-13T11:38:32Z</time>
      </trkpt>
      <trkpt lat="44.86261" lon="-0.36509">
        <ele>70.79</ele>
        <time>2015-12-13T11:38:45Z</time>
      </trkpt>
      <trkpt lat="44.86247" lon="-0.36517">
        <ele>71.27</ele>
        <time>2015-12-13T11:38:57Z</time>
      </trkpt>
      <trkpt lat="44.86239" lon="-0.3652">
        <ele>71.27</ele>
        <time>2015-12-13T11:39:04Z</time>
      </trkpt>
      <trkpt lat="44.86221" lon="-0.36528">
        <ele>71.27</ele>
        <time>2015-12-13T11:39:19Z</time>
      </trkpt>
      <trkpt lat="44.86214" lon="-0.36539">
        <ele>71.27</ele>
        <time>2015-12-13T11:39:28Z</time>
      </trkpt>
      <trkpt lat="44.86213" lon="-0.36546">
        <ele>71.27</ele>
        <time>2015-12-13T11:39:33Z</time>
      </trkpt>
      <trkpt lat="44.86213" lon="-0.36549">
        <ele>71.27</ele>
        <time>2015-12-13T11:39:35Z</time>
      </trkpt>
      <trkpt lat="44.8622" lon="-0.36574">
        <ele>71.27</ele>
        <time>2015-12-13T11:39:50Z</time>
      </trkpt>
      <trkpt lat="44.86228" lon="-0.36597">
        <ele>71.27</ele>
        <time>2015-12-13T11:40:05Z</time>
      </trkpt>
      <trkpt lat="44.86237" lon="-0.36619">
        <ele>70.79</ele>
        <time>2015-12-13T11:40:19Z</time>
      </trkpt>
      <trkpt lat="44.86241" lon="-0.36647">
        <ele>71.27</ele>
        <time>2015-12-13T11:40:36Z</time>
      </trkpt>
      <trkpt lat="44.86241" lon="-0.36674">
        <ele>71.27</ele>
        <time>2015-12-13T11:40:52Z</time>
      </trkpt>
      <trkpt lat="44.86241" lon="-0.367">
        <ele>72.24</ele>
        <time>2015-12-13T11:41:06Z</time>
      </trkpt>
      <trkpt lat="44.8624" lon="-0.36725">
        <ele>72.24</ele>
        <time>2015-12-13T11:41:20Z</time>
      </trkpt>
      <trkpt lat="44.86238" lon="-0.36744">
        <ele>72.24</ele>
        <time>2015-12-13T11:41:33Z</time>
      </trkpt>
      <trkpt lat="44.86237" lon="-0.36772">
        <ele>72.72</ele>
        <time>2015-12-13T11:41:49Z</time>
      </trkpt>
      <trkpt lat="44.86236" lon="-0.36796">
        <ele>73.2</ele>
        <time>2015-12-13T11:42:03Z</time>
      </trkpt>
      <trkpt lat="44.86233" lon="-0.3682">
        <ele>73.2</ele>
        <time>2015-12-13T11:42:17Z</time>
      </trkpt>
      <trkpt lat="44.86232" lon="-0.36846">
        <ele>73.2</ele>
        <time>2015-12-13T11:42:32Z</time>
      </trkpt>
      <trkpt lat="44.8623" lon="-0.36873">
        <ele>73.68</ele>
        <time>2015-12-13T11:42:47Z</time>
      </trkpt>
      <trkpt lat="44.86229" lon="-0.36876">
        <ele>73.68</ele>
        <time>2015-12-13T11:42:49Z</time>
      </trkpt>
      <trkpt lat="44.86218" lon="-0.36884">
        <ele>73.68</ele>
        <time>2015-12-13T11:43:00Z</time>
      </trkpt>
      <trkpt lat="44.86203" lon="-0.36883">
        <ele>73.68</ele>
        <time>2015-12-13T11:43:14Z</time>
      </trkpt>
      <trkpt lat="44.86188" lon="-0.36876">
        <ele>73.68</ele>
        <time>2015-12-13T11:43:27Z</time>
      </trkpt>
      <trkpt lat="44.86173" lon="-0.36866">
        <ele>73.68</ele>
        <time>2015-12-13T11:43:42Z</time>
      </trkpt>
      <trkpt lat="44.86158" lon="-0.36859">
        <ele>73.68</ele>
        <time>2015-12-13T11:43:55Z</time>
      </trkpt>
      <trkpt lat="44.86143" lon="-0.36854">
        <ele>73.2</ele>
        <time>2015-12-13T11:44:08Z</time>
      </trkpt>
      <trkpt lat="44.86125" lon="-0.36847">
        <ele>73.2</ele>
        <time>2015-12-13T11:44:24Z</time>
      </trkpt>
      <trkpt lat="44.86108" lon="-0.3684">
        <ele>72.24</ele>
        <time>2015-12-13T11:44:37Z</time>
      </trkpt>
      <trkpt lat="44.86095" lon="-0.36835">
        <ele>72.24</ele>
        <time>2015-12-13T11:44:48Z</time>
      </trkpt>
      <trkpt lat="44.86078" lon="-0.36828">
        <ele>72.24</ele>
        <time>2015-12-13T11:45:04Z</time>
      </trkpt>
      <trkpt lat="44.86064" lon="-0.3682">
        <ele>71.76</ele>
        <time>2015-12-13T11:45:15Z</time>
      </trkpt>
      <trkpt lat="44.86046" lon="-0.36807">
        <ele>71.76</ele>
        <time>2015-12-13T11:45:31Z</time>
      </trkpt>
      <trkpt lat="44.86032" lon="-0.36796">
        <ele>71.76</ele>
        <time>2015-12-13T11:45:46Z</time>
      </trkpt>
      <trkpt lat="44.86029" lon="-0.36794">
        <ele>71.76</ele>
        <time>2015-12-13T11:45:50Z</time>
      </trkpt>
      <trkpt lat="44.86013" lon="-0.36785">
        <ele>71.76</ele>
        <time>2015-12-13T11:46:05Z</time>
      </trkpt>
      <trkpt lat="44.85998" lon="-0.36778">
        <ele>71.27</ele>
        <time>2015-12-13T11:46:19Z</time>
      </trkpt>
      <trkpt lat="44.85984" lon="-0.36773">
        <ele>70.79</ele>
        <time>2015-12-13T11:46:32Z</time>
      </trkpt>
      <trkpt lat="44.85967" lon="-0.36768">
        <ele>70.31</ele>
        <time>2015-12-13T11:46:46Z</time>
      </trkpt>
      <trkpt lat="44.8596" lon="-0.36766">
        <ele>70.31</ele>
        <time>2015-12-13T11:46:53Z</time>
      </trkpt>
      <trkpt lat="44.85951" lon="-0.3675">
        <ele>70.31</ele>
        <time>2015-12-13T11:47:09Z</time>
      </trkpt>
      <trkpt lat="44.85949" lon="-0.36749">
        <ele>70.31</ele>
        <time>2015-12-13T11:47:14Z</time>
      </trkpt>
      <trkpt lat="44.85938" lon="-0.36734">
        <ele>70.31</ele>
        <time>2015-12-13T11:47:30Z</time>
      </trkpt>
      <trkpt lat="44.85935" lon="-0.36729">
        <ele>69.83</ele>
        <time>2015-12-13T11:47:46Z</time>
      </trkpt>
      <trkpt lat="44.85933" lon="-0.36722">
        <ele>69.83</ele>
        <time>2015-12-13T11:48:00Z</time>
      </trkpt>
      <trkpt lat="44.85935" lon="-0.36721">
        <ele>69.83</ele>
        <time>2015-12-13T11:48:18Z</time>
      </trkpt>
    </trkseg>
  </trk>
</gpx>